Observation data for Stinnett on 08/13/2019      Previous  Date       Current Mesonet Observations  Soil Data  Daily Summary Page  Observations in Plain Language
KST3 130500Z 11007KT 22/19 A3004 RMK A01 T02210188  RH  081%=      5-min Rain = 0
KST3 130501Z 11008KT 22/19 A3004 RMK A01 T02210188  RH  082%=      5-min Rain = 0
KST3 130502Z 12009KT 22/19 A3004 RMK A01 T02210189  RH  082%=      5-min Rain = 0
KST3 130503Z 11011KT 22/19 A3004 RMK A01 T02210188  RH  082%=      5-min Rain = 0
KST3 130504Z 11010KT 22/19 A3004 RMK A01 T02210188  RH  081%=      5-min Rain = 0
KST3 130505Z 11010KT 22/19 A3004 RMK A01 T02210188  RH  082%=      5-min Rain = 0
KST3 130506Z 11010KT 22/19 A3004 RMK A01 T02210188  RH  082%=      5-min Rain = 0
KST3 130507Z 12009KT 22/19 A3004 RMK A01 T02210188  RH  082%=      5-min Rain = 0
KST3 130508Z 12009KT 22/19 A3004 RMK A01 T02210189  RH  082%=      5-min Rain = 0
KST3 130509Z 11009KT 22/19 A3004 RMK A01 T02200189  RH  082%=      5-min Rain = 0
KST3 130510Z 11010KT 22/19 A3004 RMK A01 T02200188  RH  082%=      5-min Rain = 0
KST3 130511Z 10009KT 22/19 A3004 RMK A01 T02190188  RH  082%=      5-min Rain = 0
KST3 130512Z 10009KT 22/19 A3004 RMK A01 T02190189  RH  083%=      5-min Rain = 0
KST3 130513Z 10009KT 22/19 A3004 RMK A01 T02180189  RH  083%=      5-min Rain = 0
KST3 130514Z 10009KT 22/19 A3004 RMK A01 T02170189  RH  084%=      5-min Rain = 0
KST3 130515Z 10008KT 22/19 A3004 RMK A01 T02170189  RH  084%=      5-min Rain = 0
KST3 130516Z 10009KT 22/19 A3004 RMK A01 T02170189  RH  084%=      5-min Rain = 0
KST3 130517Z 10009KT 22/19 A3004 RMK A01 T02170189  RH  084%=      5-min Rain = 0
KST3 130518Z 10008KT 22/19 A3004 RMK A01 T02160189  RH  084%=      5-min Rain = 0
KST3 130519Z 10008KT 22/19 A3004 RMK A01 T02160189  RH  085%=      5-min Rain = 0
KST3 130520Z 10009KT 22/19 A3004 RMK A01 T02150189  RH  085%=      5-min Rain = 0
KST3 130521Z 09009KT 22/19 A3004 RMK A01 T02150189  RH  085%=      5-min Rain = 0
KST3 130522Z 09009KT 22/19 A3004 RMK A01 T02150189  RH  085%=      5-min Rain = 0
KST3 130523Z 09008KT 21/19 A3004 RMK A01 T02140189  RH  085%=      5-min Rain = 0
KST3 130524Z 09009KT 22/19 A3004 RMK A01 T02150189  RH  085%=      5-min Rain = 0
KST3 130525Z 10008KT 22/19 A3004 RMK A01 T02150189  RH  085%=      5-min Rain = 0
KST3 130526Z 09008KT 22/19 A3004 RMK A01 T02150189  RH  085%=      5-min Rain = 0
KST3 130527Z 10008KT 21/19 A3004 RMK A01 T02140189  RH  085%=      5-min Rain = 0
KST3 130528Z 09007KT 21/19 A3004 RMK A01 T02140189  RH  085%=      5-min Rain = 0
KST3 130529Z 09007KT 21/19 A3004 RMK A01 T02140189  RH  086%=      5-min Rain = 0
KST3 130530Z 09007KT 21/19 A3004 RMK A01 T02130189  RH  086%=      5-min Rain = 0
KST3 130531Z 09008KT 21/19 A3004 RMK A01 T02130189  RH  086%=      5-min Rain = 0
KST3 130532Z 09009KT 21/19 A3004 RMK A01 T02130189  RH  086%=      5-min Rain = 0
KST3 130533Z 09010KT 21/19 A3004 RMK A01 T02130188  RH  086%=      5-min Rain = 0
KST3 130534Z 09009KT 21/19 A3004 RMK A01 T02130188  RH  085%=      5-min Rain = 0
KST3 130535Z 09008KT 21/19 A3004 RMK A01 T02140188  RH  085%=      5-min Rain = 0
KST3 130536Z 09009KT 21/19 A3004 RMK A01 T02140188  RH  085%=      5-min Rain = 0
KST3 130537Z 09008KT 21/19 A3004 RMK A01 T02140188  RH  085%=      5-min Rain = 0
KST3 130538Z 09007KT 21/19 A3004 RMK A01 T02140189  RH  086%=      5-min Rain = 0
KST3 130539Z 08007KT 21/19 A3004 RMK A01 T02130189  RH  086%=      5-min Rain = 0
KST3 130540Z 08007KT 21/19 A3004 RMK A01 T02130189  RH  086%=      5-min Rain = 0
KST3 130541Z 08006KT 21/19 A3004 RMK A01 T02130189  RH  087%=      5-min Rain = 0
KST3 130542Z 07006KT 21/19 A3004 RMK A01 T02120190  RH  087%=      5-min Rain = 0
KST3 130543Z 07006KT 21/19 A3004 RMK A01 T02120190  RH  087%=      5-min Rain = 0
KST3 130544Z 07006KT 21/19 A3004 RMK A01 T02110190  RH  087%=      5-min Rain = 0
KST3 130545Z 08006KT 21/19 A3004 RMK A01 T02110190  RH  087%=      5-min Rain = 0
KST3 130546Z 07006KT 21/19 A3004 RMK A01 T02110190  RH  088%=      5-min Rain = 0
KST3 130547Z 07006KT 21/19 A3004 RMK A01 T02110190  RH  088%=      5-min Rain = 0
KST3 130548Z 07007KT 21/19 A3004 RMK A01 T02110190  RH  088%=      5-min Rain = 0
KST3 130549Z 07007KT 21/19 A3004 RMK A01 T02110190  RH  088%=      5-min Rain = 0
KST3 130550Z 07007KT 21/19 A3004 RMK A01 T02110189  RH  087%=      5-min Rain = 0
KST3 130551Z 07007KT 21/19 A3004 RMK A01 T02110189  RH  087%=      5-min Rain = 0
KST3 130552Z 07007KT 21/19 A3004 RMK A01 T02110189  RH  087%=      5-min Rain = 0
KST3 130553Z 07007KT 21/19 A3004 RMK A01 T02110190  RH  087%=      5-min Rain = 0
KST3 130554Z 07007KT 21/19 A3004 RMK A01 T02110189  RH  087%=      5-min Rain = 0
KST3 130555Z 07006KT 21/19 A3004 RMK A01 T02110189  RH  087%=      5-min Rain = 0
KST3 130556Z 07006KT 21/19 A3004 RMK A01 T02110189  RH  087%=      5-min Rain = 0
KST3 130557Z 06006KT 21/19 A3005 RMK A01 T02110190  RH  088%=      5-min Rain = 0
KST3 130558Z 06006KT 21/19 A3005 RMK A01 T02110190  RH  088%=      5-min Rain = 0
KST3 130559Z 06006KT 21/19 A3005 RMK A01 T02100190  RH  088%=      5-min Rain = 0
KST3 130600Z 06007KT 21/19 A3005 RMK A01 T02100190  RH  089%=      5-min Rain = 0
KST3 130601Z 06006KT 21/19 A3005 RMK A01 T02090191  RH  089%=      5-min Rain = 0
KST3 130602Z 06007KT 21/19 A3005 RMK A01 T02090192  RH  090%=      5-min Rain = 0
KST3 130603Z 06006KT 21/19 A3005 RMK A01 T02080191  RH  090%=      5-min Rain = 0
KST3 130604Z 06007KT 21/19 A3005 RMK A01 T02080191  RH  090%=      5-min Rain = 0
KST3 130605Z 06006KT 21/19 A3005 RMK A01 T02070191  RH  090%=      5-min Rain = 0
KST3 130606Z 06006KT 21/19 A3005 RMK A01 T02070190  RH  090%=      5-min Rain = 0
KST3 130607Z 07006KT 21/19 A3005 RMK A01 T02070190  RH  090%=      5-min Rain = 0
KST3 130608Z 07007KT 21/19 A3005 RMK A01 T02080190  RH  090%=      5-min Rain = 0
KST3 130609Z 07007KT 21/19 A3005 RMK A01 T02080190  RH  089%=      5-min Rain = 0
KST3 130610Z 08006KT 21/19 A3005 RMK A01 T02080190  RH  089%=      5-min Rain = 0
KST3 130611Z 08006KT 21/19 A3005 RMK A01 T02090190  RH  089%=      5-min Rain = 0
KST3 130612Z 08006KT 21/19 A3005 RMK A01 T02090190  RH  089%=      5-min Rain = 0
KST3 130613Z 09006KT 21/19 A3005 RMK A01 T02090190  RH  089%=      5-min Rain = 0
KST3 130614Z 09006KT 21/19 A3005 RMK A01 T02080190  RH  089%=      5-min Rain = 0
KST3 130615Z 08006KT 21/19 A3005 RMK A01 T02080190  RH  089%=      5-min Rain = 0
KST3 130616Z 08006KT 21/19 A3006 RMK A01 T02080190  RH  089%=      5-min Rain = 0
KST3 130617Z 08006KT 21/19 A3006 RMK A01 T02080190  RH  090%=      5-min Rain = 0
KST3 130618Z 08005KT 21/19 A3006 RMK A01 T02070190  RH  090%=      5-min Rain = 0
KST3 130619Z 08006KT 21/19 A3006 RMK A01 T02070190  RH  090%=      5-min Rain = 0
KST3 130620Z 08006KT 21/19 A3006 RMK A01 T02070190  RH  090%=      5-min Rain = 0
KST3 130621Z 08007KT 21/19 A3006 RMK A01 T02070190  RH  090%=      5-min Rain = 0
KST3 130622Z 08007KT 21/19 A3006 RMK A01 T02060190  RH  090%=      5-min Rain = 0
KST3 130623Z 08007KT 21/19 A3006 RMK A01 T02060190  RH  091%=      5-min Rain = 0
KST3 130624Z 08007KT 21/19 A3006 RMK A01 T02050190  RH  091%=      5-min Rain = 0
KST3 130625Z 08007KT 21/19 A3006 RMK A01 T02060191  RH  091%=      5-min Rain = 0
KST3 130626Z 07006KT 21/19 A3006 RMK A01 T02050190  RH  091%=      5-min Rain = 0
KST3 130627Z 07007KT 21/19 A3006 RMK A01 T02050190  RH  091%=      5-min Rain = 0
KST3 130628Z 07005KT 21/19 A3006 RMK A01 T02050190  RH  091%=      5-min Rain = 0
KST3 130629Z 07006KT 21/19 A3006 RMK A01 T02050190  RH  091%=      5-min Rain = 0
KST3 130630Z 07006KT 21/19 A3006 RMK A01 T02050190  RH  091%=      5-min Rain = 0
KST3 130631Z 07006KT 21/19 A3006 RMK A01 T02060190  RH  091%=      5-min Rain = 0
KST3 130632Z 07005KT 21/19 A3006 RMK A01 T02050190  RH  091%=      5-min Rain = 0
KST3 130633Z 07005KT 21/19 A3006 RMK A01 T02060191  RH  091%=      5-min Rain = 0
KST3 130634Z 08006KT 21/19 A3006 RMK A01 T02050191  RH  091%=      5-min Rain = 0
KST3 130635Z 08005KT 21/19 A3006 RMK A01 T02050190  RH  091%=      5-min Rain = 0
KST3 130636Z 08006KT 21/19 A3006 RMK A01 T02050190  RH  091%=      5-min Rain = 0
KST3 130637Z 08005KT 21/19 A3006 RMK A01 T02050190  RH  091%=      5-min Rain = 0
KST3 130638Z 08005KT 21/19 A3006 RMK A01 T02050190  RH  091%=      5-min Rain = 0
KST3 130639Z 08005KT 21/19 A3006 RMK A01 T02050190  RH  091%=      5-min Rain = 0
KST3 130640Z 08005KT 21/19 A3006 RMK A01 T02050190  RH  091%=      5-min Rain = 0
KST3 130641Z 08005KT 21/19 A3005 RMK A01 T02050190  RH  091%=      5-min Rain = 0
KST3 130642Z 09005KT 21/19 A3005 RMK A01 T02050190  RH  091%=      5-min Rain = 0
KST3 130643Z 09005KT 21/19 A3006 RMK A01 T02050190  RH  091%=      5-min Rain = 0
KST3 130644Z 09005KT 20/19 A3006 RMK A01 T02040190  RH  091%=      5-min Rain = 0
KST3 130645Z 09005KT 20/19 A3005 RMK A01 T02040190  RH  092%=      5-min Rain = 0
KST3 130646Z 09005KT 20/19 A3005 RMK A01 T02040190  RH  092%=      5-min Rain = 0
KST3 130647Z 09005KT 20/19 A3005 RMK A01 T02040190  RH  092%=      5-min Rain = 0
KST3 130648Z 09005KT 20/19 A3005 RMK A01 T02040190  RH  092%=      5-min Rain = 0
KST3 130649Z 10006KT 20/19 A3005 RMK A01 T02040190  RH  092%=      5-min Rain = 0
KST3 130650Z 09007KT 20/19 A3005 RMK A01 T02040190  RH  092%=      5-min Rain = 0
KST3 130651Z 10007KT 20/19 A3005 RMK A01 T02040190  RH  092%=      5-min Rain = 0
KST3 130652Z 09007KT 21/19 A3005 RMK A01 T02050190  RH  091%=      5-min Rain = 0
KST3 130653Z 09007KT 21/19 A3005 RMK A01 T02050190  RH  091%=      5-min Rain = 0
KST3 130654Z 09006KT 21/19 A3005 RMK A01 T02060190  RH  090%=      5-min Rain = 0
KST3 130655Z 09006KT 21/19 A3005 RMK A01 T02060189  RH  090%=      5-min Rain = 0
KST3 130656Z 09006KT 21/19 A3005 RMK A01 T02060190  RH  090%=      5-min Rain = 0
KST3 130657Z 08005KT 21/19 A3006 RMK A01 T02060189  RH  090%=      5-min Rain = 0
KST3 130658Z 07005KT 21/19 A3006 RMK A01 T02060190  RH  090%=      5-min Rain = 0
KST3 130659Z 07004KT 21/19 A3006 RMK A01 T02060190  RH  091%=      5-min Rain = 0
KST3 130700Z 06005KT 21/19 A3006 RMK A01 T02050190  RH  091%=      5-min Rain = 0
KST3 130701Z 05005KT 20/19 A3006 RMK A01 T02040190  RH  092%=      5-min Rain = 0
KST3 130702Z 04005KT 20/19 A3006 RMK A01 T02030191  RH  092%=      5-min Rain = 0
KST3 130703Z 03005KT 20/19 A3006 RMK A01 T02020191  RH  093%=      5-min Rain = 0
KST3 130704Z 03005KT 20/19 A3006 RMK A01 T02020191  RH  093%=      5-min Rain = 0
KST3 130705Z 03004KT 20/19 A3006 RMK A01 T02010191  RH  094%=      5-min Rain = 0
KST3 130706Z 03005KT 20/19 A3006 RMK A01 T02000191  RH  094%=      5-min Rain = 0
KST3 130707Z 03005KT 20/19 A3006 RMK A01 T02000191  RH  095%=      5-min Rain = 0
KST3 130708Z 03005KT 20/19 A3006 RMK A01 T02000191  RH  095%=      5-min Rain = 0
KST3 130709Z 02005KT 20/19 A3006 RMK A01 T02000191  RH  095%=      5-min Rain = 0
KST3 130710Z 03005KT 20/19 A3007 RMK A01 T02000191  RH  095%=      5-min Rain = 0
KST3 130711Z 03005KT 20/19 A3007 RMK A01 T02000191  RH  094%=      5-min Rain = 0
KST3 130712Z 03005KT 20/19 A3007 RMK A01 T02000191  RH  094%=      5-min Rain = 0
KST3 130713Z 02004KT 20/19 A3007 RMK A01 T02010191  RH  094%=      5-min Rain = 0
KST3 130714Z 03004KT 20/19 A3006 RMK A01 T02010192  RH  095%=      5-min Rain = 0
KST3 130715Z 02005KT 20/19 A3006 RMK A01 T02000192  RH  095%=      5-min Rain = 0
KST3 130716Z 03005KT 20/19 A3006 RMK A01 T02000191  RH  095%=      5-min Rain = 0
KST3 130717Z 03005KT 20/19 A3006 RMK A01 T01990191  RH  095%=      5-min Rain = 0
KST3 130718Z 03005KT 20/19 A3006 RMK A01 T01990191  RH  095%=      5-min Rain = 0
KST3 130719Z 03004KT 20/19 A3006 RMK A01 T02000191  RH  095%=      5-min Rain = 0
KST3 130720Z 03004KT 20/19 A3006 RMK A01 T02000191  RH  094%=      5-min Rain = 0
KST3 130721Z 03005KT 20/19 A3006 RMK A01 T02000191  RH  094%=      5-min Rain = 0
KST3 130722Z 03005KT 20/19 A3006 RMK A01 T02000191  RH  094%=      5-min Rain = 0
KST3 130723Z 03005KT 20/19 A3006 RMK A01 T02000191  RH  094%=      5-min Rain = 0
KST3 130724Z 03004KT 20/19 A3006 RMK A01 T02010191  RH  094%=      5-min Rain = 0
KST3 130725Z 04004KT 20/19 A3006 RMK A01 T02010191  RH  094%=      5-min Rain = 0
KST3 130726Z 04004KT 20/19 A3006 RMK A01 T02010191  RH  094%=      5-min Rain = 0
KST3 130727Z 06005KT 20/19 A3006 RMK A01 T02010191  RH  094%=      5-min Rain = 0
KST3 130728Z 06003KT 20/19 A3006 RMK A01 T02010191  RH  094%=      5-min Rain = 0
KST3 130729Z 05004KT 20/19 A3006 RMK A01 T02010191  RH  094%=      5-min Rain = 0
KST3 130730Z 06003KT 20/19 A3006 RMK A01 T02010190  RH  094%=      5-min Rain = 0
KST3 130731Z 06003KT 20/19 A3006 RMK A01 T02010190  RH  094%=      5-min Rain = 0
KST3 130732Z 05004KT 20/19 A3006 RMK A01 T02010190  RH  094%=      5-min Rain = 0
KST3 130733Z 05004KT 20/19 A3006 RMK A01 T02010190  RH  094%=      5-min Rain = 0
KST3 130734Z 06003KT 20/19 A3006 RMK A01 T02020191  RH  093%=      5-min Rain = 0
KST3 130735Z 06003KT 20/19 A3005 RMK A01 T02020191  RH  093%=      5-min Rain = 0
KST3 130736Z 06003KT 20/19 A3005 RMK A01 T02020191  RH  093%=      5-min Rain = 0
KST3 130737Z 07003KT 20/19 A3005 RMK A01 T02020190  RH  093%=      5-min Rain = 0
KST3 130738Z 08003KT 20/19 A3005 RMK A01 T02030190  RH  092%=      5-min Rain = 0
KST3 130739Z 08003KT 20/19 A3005 RMK A01 T02030190  RH  092%=      5-min Rain = 0
KST3 130740Z 08004KT 20/19 A3005 RMK A01 T02030190  RH  092%=      5-min Rain = 0
KST3 130741Z 08004KT 20/19 A3005 RMK A01 T02030190  RH  092%=      5-min Rain = 0
KST3 130742Z 09004KT 20/19 A3006 RMK A01 T02040190  RH  092%=      5-min Rain = 0
KST3 130743Z 08004KT 21/19 A3006 RMK A01 T02050190  RH  091%=      5-min Rain = 0
KST3 130744Z 06004KT 21/19 A3006 RMK A01 T02060190  RH  091%=      5-min Rain = 0
KST3 130745Z 06005KT 21/19 A3006 RMK A01 T02060190  RH  091%=      5-min Rain = 0
KST3 130746Z 06004KT 21/19 A3006 RMK A01 T02050190  RH  091%=      5-min Rain = 0
KST3 130747Z 06004KT 20/19 A3006 RMK A01 T02040190  RH  092%=      5-min Rain = 0
KST3 130748Z 06004KT 20/19 A3006 RMK A01 T02030190  RH  092%=      5-min Rain = 0
KST3 130749Z 06003KT 20/19 A3006 RMK A01 T02030190  RH  092%=      5-min Rain = 0
KST3 130750Z 07004KT 20/19 A3005 RMK A01 T02030191  RH  092%=      5-min Rain = 0
KST3 130751Z 07003KT 20/19 A3005 RMK A01 T02030191  RH  093%=      5-min Rain = 0
KST3 130752Z 08003KT 20/19 A3005 RMK A01 T02030191  RH  093%=      5-min Rain = 0
KST3 130753Z 08003KT 20/19 A3005 RMK A01 T02030190  RH  092%=      5-min Rain = 0
KST3 130754Z 09004KT 20/19 A3005 RMK A01 T02030190  RH  092%=      5-min Rain = 0
KST3 130755Z 09004KT 20/19 A3005 RMK A01 T02030190  RH  092%=      5-min Rain = 0
KST3 130756Z 08004KT 20/19 A3005 RMK A01 T02020190  RH  093%=      5-min Rain = 0
KST3 130757Z 09004KT 20/19 A3005 RMK A01 T02020190  RH  092%=      5-min Rain = 0
KST3 130758Z 09004KT 20/19 A3005 RMK A01 T02020190  RH  092%=      5-min Rain = 0
KST3 130759Z 09004KT 20/19 A3005 RMK A01 T02030190  RH  092%=      5-min Rain = 0
KST3 130800Z 08004KT 20/19 A3005 RMK A01 T02030190  RH  092%=      5-min Rain = 0
KST3 130801Z 08004KT 20/19 A3005 RMK A01 T02030189  RH  092%=      5-min Rain = 0
KST3 130802Z 07005KT 20/19 A3005 RMK A01 T02030189  RH  092%=      5-min Rain = 0
KST3 130803Z 07005KT 20/19 A3005 RMK A01 T02030190  RH  092%=      5-min Rain = 0
KST3 130804Z 07005KT 20/19 A3005 RMK A01 T02030190  RH  092%=      5-min Rain = 0
KST3 130805Z 08004KT 20/19 A3005 RMK A01 T02030190  RH  092%=      5-min Rain = 0
KST3 130806Z 08004KT 20/19 A3005 RMK A01 T02030190  RH  092%=      5-min Rain = 0
KST3 130807Z 09004KT 20/19 A3005 RMK A01 T02030190  RH  092%=      5-min Rain = 0
KST3 130808Z 09004KT 20/19 A3005 RMK A01 T02020190  RH  092%=      5-min Rain = 0
KST3 130809Z 09003KT 20/19 A3005 RMK A01 T02030190  RH  092%=      5-min Rain = 0
KST3 130810Z 09003KT 20/19 A3005 RMK A01 T02030189  RH  092%=      5-min Rain = 0
KST3 130811Z 08003KT 20/19 A3005 RMK A01 T02030189  RH  092%=      5-min Rain = 0
KST3 130812Z 08004KT 20/19 A3005 RMK A01 T02030189  RH  092%=      5-min Rain = 0
KST3 130813Z 08004KT 20/19 A3005 RMK A01 T02030189  RH  092%=      5-min Rain = 0
KST3 130814Z 08004KT 20/19 A3005 RMK A01 T02030190  RH  092%=      5-min Rain = 0
KST3 130815Z 08004KT 20/19 A3005 RMK A01 T02030189  RH  092%=      5-min Rain = 0
KST3 130816Z 08004KT 20/19 A3005 RMK A01 T02040189  RH  091%=      5-min Rain = 0
KST3 130817Z 08003KT 20/19 A3005 RMK A01 T02040189  RH  091%=      5-min Rain = 0
KST3 130818Z 09003KT 21/19 A3005 RMK A01 T02050190  RH  091%=      5-min Rain = 0
KST3 130819Z 09003KT 20/19 A3005 RMK A01 T02040189  RH  091%=      5-min Rain = 0
KST3 130820Z 10003KT 20/19 A3005 RMK A01 T02040189  RH  091%=      5-min Rain = 0
KST3 130821Z 10004KT 20/19 A3005 RMK A01 T02040189  RH  091%=      5-min Rain = 0
KST3 130822Z 10004KT 20/19 A3005 RMK A01 T02040189  RH  091%=      5-min Rain = 0
KST3 130823Z 10004KT 20/19 A3005 RMK A01 T02040189  RH  091%=      5-min Rain = 0
KST3 130824Z 10004KT 20/19 A3005 RMK A01 T02040189  RH  091%=      5-min Rain = 0
KST3 130825Z 10004KT 20/19 A3005 RMK A01 T02030189  RH  092%=      5-min Rain = 0
KST3 130826Z 09004KT 20/19 A3005 RMK A01 T02030189  RH  092%=      5-min Rain = 0
KST3 130827Z 09004KT 20/19 A3005 RMK A01 T02030189  RH  092%=      5-min Rain = 0
KST3 130828Z 09004KT 20/19 A3005 RMK A01 T02030189  RH  092%=      5-min Rain = 0
KST3 130829Z 09005KT 20/19 A3005 RMK A01 T02030189  RH  091%=      5-min Rain = 0
KST3 130830Z 09005KT 20/19 A3005 RMK A01 T02040189  RH  091%=      5-min Rain = 0
KST3 130831Z 08004KT 21/19 A3005 RMK A01 T02050189  RH  091%=      5-min Rain = 0
KST3 130832Z 08005KT 21/19 A3005 RMK A01 T02050189  RH  091%=      5-min Rain = 0
KST3 130833Z 08005KT 20/19 A3005 RMK A01 T02040189  RH  091%=      5-min Rain = 0
KST3 130834Z 08004KT 20/19 A3006 RMK A01 T02040189  RH  091%=      5-min Rain = 0
KST3 130835Z 08004KT 21/19 A3006 RMK A01 T02050190  RH  091%=      5-min Rain = 0
KST3 130836Z 07004KT 20/19 A3006 RMK A01 T02040189  RH  091%=      5-min Rain = 0
KST3 130837Z 06003KT 20/19 A3006 RMK A01 T02040189  RH  091%=      5-min Rain = 0
KST3 130838Z 06004KT 20/19 A3006 RMK A01 T02030189  RH  092%=      5-min Rain = 0
KST3 130839Z 05004KT 20/19 A3006 RMK A01 T02020189  RH  092%=      5-min Rain = 0
KST3 130840Z 05003KT 20/19 A3006 RMK A01 T02020189  RH  092%=      5-min Rain = 0
KST3 130841Z 05004KT 20/19 A3006 RMK A01 T02010189  RH  093%=      5-min Rain = 0
KST3 130842Z 05003KT 20/19 A3006 RMK A01 T02010189  RH  093%=      5-min Rain = 0
KST3 130843Z 05003KT 20/19 A3006 RMK A01 T02000189  RH  093%=      5-min Rain = 0
KST3 130844Z 06003KT 20/19 A3006 RMK A01 T02000190  RH  093%=      5-min Rain = 0
KST3 130845Z 06003KT 20/19 A3006 RMK A01 T02010190  RH  093%=      5-min Rain = 0
KST3 130846Z 05003KT 20/19 A3006 RMK A01 T02000190  RH  094%=      5-min Rain = 0
KST3 130847Z 04004KT 20/19 A3006 RMK A01 T02000189  RH  093%=      5-min Rain = 0
KST3 130848Z 04003KT 20/19 A3006 RMK A01 T02000190  RH  093%=      5-min Rain = 0
KST3 130849Z 04003KT 20/19 A3006 RMK A01 T02000190  RH  093%=      5-min Rain = 0
KST3 130850Z 04004KT 20/19 A3006 RMK A01 T02000189  RH  094%=      5-min Rain = 0
KST3 130851Z 04004KT 20/19 A3006 RMK A01 T02000189  RH  094%=      5-min Rain = 0
KST3 130852Z 04004KT 20/19 A3006 RMK A01 T02000189  RH  094%=      5-min Rain = 0
KST3 130853Z 04004KT 20/19 A3006 RMK A01 T01990189  RH  094%=      5-min Rain = 0
KST3 130854Z 04003KT 20/19 A3006 RMK A01 T01990189  RH  094%=      5-min Rain = 0
KST3 130855Z 04004KT 20/19 A3006 RMK A01 T01990189  RH  094%=      5-min Rain = 0
KST3 130856Z 04004KT 20/19 A3006 RMK A01 T01990189  RH  094%=      5-min Rain = 0
KST3 130857Z 04003KT 20/19 A3006 RMK A01 T01990189  RH  094%=      5-min Rain = 0
KST3 130858Z 04003KT 20/19 A3006 RMK A01 T01990189  RH  094%=      5-min Rain = 0
KST3 130859Z 04003KT 20/19 A3006 RMK A01 T01990189  RH  094%=      5-min Rain = 0
KST3 130900Z 04003KT 20/19 A3006 RMK A01 T01990189  RH  094%=      5-min Rain = 0
KST3 130901Z 03003KT 20/19 A3006 RMK A01 T01990189  RH  094%=      5-min Rain = 0
KST3 130902Z 03003KT 20/19 A3006 RMK A01 T01990189  RH  094%=      5-min Rain = 0
KST3 130903Z 03003KT 20/19 A3007 RMK A01 T01980188  RH  094%=      5-min Rain = 0
KST3 130904Z 03003KT 20/19 A3007 RMK A01 T01980188  RH  094%=      5-min Rain = 0
KST3 130905Z 02003KT 20/19 A3007 RMK A01 T01970188  RH  094%=      5-min Rain = 0
KST3 130906Z 02004KT 20/19 A3007 RMK A01 T01970188  RH  095%=      5-min Rain = 0
KST3 130907Z 02004KT 20/19 A3007 RMK A01 T01970188  RH  095%=      5-min Rain = 0
KST3 130908Z 01003KT 20/19 A3007 RMK A01 T01960188  RH  095%=      5-min Rain = 0
KST3 130909Z 01004KT 20/19 A3006 RMK A01 T01960188  RH  095%=      5-min Rain = 0
KST3 130910Z 01003KT 20/19 A3006 RMK A01 T01960189  RH  096%=      5-min Rain = 0
KST3 130911Z 02003KT 20/19 A3007 RMK A01 T01960188  RH  095%=      5-min Rain = 0
KST3 130912Z 01003KT 20/19 A3007 RMK A01 T01960188  RH  095%=      5-min Rain = 0
KST3 130913Z 01003KT 20/19 A3007 RMK A01 T01960189  RH  096%=      5-min Rain = 0
KST3 130914Z 01003KT 20/19 A3007 RMK A01 T01960189  RH  095%=      5-min Rain = 0
KST3 130915Z 02003KT 20/19 A3007 RMK A01 T01960189  RH  095%=      5-min Rain = 0
KST3 130916Z 01003KT 20/19 A3007 RMK A01 T01960189  RH  095%=      5-min Rain = 0
KST3 130917Z 01003KT 20/19 A3007 RMK A01 T01960189  RH  095%=      5-min Rain = 0
KST3 130918Z 00003KT 20/19 A3007 RMK A01 T01970189  RH  095%=      5-min Rain = 0
KST3 130919Z 00003KT 20/19 A3007 RMK A01 T01970189  RH  095%=      5-min Rain = 0
KST3 130920Z 36004KT 20/19 A3007 RMK A01 T01970189  RH  095%=      5-min Rain = 0
KST3 130921Z 35003KT 20/19 A3007 RMK A01 T01970189  RH  095%=      5-min Rain = 0
KST3 130922Z 36003KT 20/19 A3007 RMK A01 T01970189  RH  095%=      5-min Rain = 0
KST3 130923Z 35003KT 20/19 A3007 RMK A01 T01970189  RH  095%=      5-min Rain = 0
KST3 130924Z 35003KT 20/19 A3007 RMK A01 T01970189  RH  095%=      5-min Rain = 0
KST3 130925Z 00003KT 20/19 A3007 RMK A01 T01970189  RH  095%=      5-min Rain = 0
KST3 130926Z 00003KT 20/19 A3007 RMK A01 T01960189  RH  095%=      5-min Rain = 0
KST3 130927Z 01003KT 20/19 A3007 RMK A01 T01960188  RH  095%=      5-min Rain = 0
KST3 130928Z 02003KT 20/19 A3006 RMK A01 T01960188  RH  095%=      5-min Rain = 0
KST3 130929Z 02002KT 20/19 A3006 RMK A01 T01950188  RH  095%=      5-min Rain = 0
KST3 130930Z 02003KT 20/19 A3006 RMK A01 T01950188  RH  096%=      5-min Rain = 0
KST3 130931Z 02002KT 20/19 A3006 RMK A01 T01950188  RH  096%=      5-min Rain = 0
KST3 130932Z 02002KT 20/19 A3006 RMK A01 T01950188  RH  096%=      5-min Rain = 0
KST3 130933Z 02002KT 20/19 A3006 RMK A01 T01950188  RH  096%=      5-min Rain = 0
KST3 130934Z 02002KT 20/19 A3006 RMK A01 T01950188  RH  096%=      5-min Rain = 0
KST3 130935Z 02002KT 20/19 A3006 RMK A01 T01950188  RH  096%=      5-min Rain = 0
KST3 130936Z 02002KT 20/19 A3006 RMK A01 T01950188  RH  096%=      5-min Rain = 0
KST3 130937Z 02002KT 20/19 A3006 RMK A01 T01950188  RH  096%=      5-min Rain = 0
KST3 130938Z 02002KT 20/19 A3006 RMK A01 T01950188  RH  096%=      5-min Rain = 0
KST3 130939Z 02002KT 20/19 A3006 RMK A01 T01950188  RH  096%=      5-min Rain = 0
KST3 130940Z 02002KT 20/19 A3006 RMK A01 T01950189  RH  096%=      5-min Rain = 0
KST3 130941Z 02002KT 20/19 A3006 RMK A01 T01960189  RH  096%=      5-min Rain = 0
KST3 130942Z 02002KT 20/19 A3006 RMK A01 T01950189  RH  096%=      5-min Rain = 0
KST3 130943Z 02002KT 20/19 A3006 RMK A01 T01950188  RH  096%=      5-min Rain = 0
KST3 130944Z 02002KT 20/19 A3006 RMK A01 T01950188  RH  096%=      5-min Rain = 0
KST3 130945Z 02002KT 20/19 A3006 RMK A01 T01950188  RH  096%=      5-min Rain = 0
KST3 130946Z 02002KT 20/19 A3006 RMK A01 T01950189  RH  096%=      5-min Rain = 0
KST3 130947Z 02001KT 20/19 A3006 RMK A01 T01950189  RH  096%=      5-min Rain = 0
KST3 130948Z 02002KT 20/19 A3006 RMK A01 T01960189  RH  096%=      5-min Rain = 0
KST3 130949Z 02001KT 20/19 A3007 RMK A01 T01960188  RH  095%=      5-min Rain = 0
KST3 130950Z 03001KT 20/19 A3007 RMK A01 T01950188  RH  095%=      5-min Rain = 0
KST3 130951Z 04002KT 20/19 A3006 RMK A01 T01950188  RH  096%=      5-min Rain = 0
KST3 130952Z 04001KT 20/19 A3006 RMK A01 T01950189  RH  096%=      5-min Rain = 0
KST3 130953Z 04001KT 20/19 A3006 RMK A01 T01950188  RH  096%=      5-min Rain = 0
KST3 130954Z 04001KT 20/19 A3006 RMK A01 T01950188  RH  096%=      5-min Rain = 0
KST3 130955Z 04001KT 20/19 A3006 RMK A01 T01960189  RH  096%=      5-min Rain = 0
KST3 130956Z 04001KT 20/19 A3006 RMK A01 T01960189  RH  095%=      5-min Rain = 0
KST3 130957Z 04001KT 20/19 A3006 RMK A01 T01970189  RH  095%=      5-min Rain = 0
KST3 130958Z 00000KT 20/19 A3006 RMK A01 T01970189  RH  095%=      5-min Rain = 0
KST3 130959Z 00000KT 20/19 A3006 RMK A01 T01970189  RH  095%=      5-min Rain = 0
KST3 131000Z 00000KT 20/19 A3006 RMK A01 T01980189  RH  095%=      5-min Rain = 0
KST3 131001Z 04001KT 20/19 A3006 RMK A01 T01980189  RH  094%=      5-min Rain = 0
KST3 131002Z 02002KT 20/19 A3006 RMK A01 T01980189  RH  094%=      5-min Rain = 0
KST3 131003Z 01002KT 20/19 A3006 RMK A01 T01980189  RH  094%=      5-min Rain = 0
KST3 131004Z 01002KT 20/19 A3006 RMK A01 T01980188  RH  094%=      5-min Rain = 0
KST3 131005Z 00003KT 20/19 A3006 RMK A01 T01980187  RH  093%=      5-min Rain = 0
KST3 131006Z 00003KT 20/19 A3007 RMK A01 T01970187  RH  094%=      5-min Rain = 0
KST3 131007Z 36003KT 20/19 A3007 RMK A01 T01960187  RH  094%=      5-min Rain = 0
KST3 131008Z 35003KT 20/19 A3007 RMK A01 T01950186  RH  094%=      5-min Rain = 0
KST3 131009Z 35003KT 19/19 A3007 RMK A01 T01940186  RH  095%=      5-min Rain = 0
KST3 131010Z 35004KT 19/19 A3007 RMK A01 T01930185  RH  095%=      5-min Rain = 0
KST3 131011Z 35004KT 19/19 A3007 RMK A01 T01930185  RH  095%=      5-min Rain = 0
KST3 131012Z 35004KT 19/19 A3007 RMK A01 T01920185  RH  096%=      5-min Rain = 0
KST3 131013Z 35004KT 19/19 A3007 RMK A01 T01920185  RH  096%=      5-min Rain = 0
KST3 131014Z 35004KT 19/19 A3007 RMK A01 T01910185  RH  096%=      5-min Rain = 0
KST3 131015Z 35004KT 19/19 A3007 RMK A01 T01910186  RH  097%=      5-min Rain = 0
KST3 131016Z 35004KT 19/19 A3007 RMK A01 T01910186  RH  097%=      5-min Rain = 0
KST3 131017Z 35004KT 19/19 A3007 RMK A01 T01910187  RH  097%=      5-min Rain = 0
KST3 131018Z 35004KT 19/19 A3007 RMK A01 T01910187  RH  097%=      5-min Rain = 0
KST3 131019Z 35004KT 19/19 A3007 RMK A01 T01920187  RH  097%=      5-min Rain = 0
KST3 131020Z 35004KT 19/19 A3007 RMK A01 T01920186  RH  097%=      5-min Rain = 0
KST3 131021Z 34004KT 19/19 A3007 RMK A01 T01920186  RH  097%=      5-min Rain = 0
KST3 131022Z 35004KT 19/19 A3007 RMK A01 T01920186  RH  096%=      5-min Rain = 0
KST3 131023Z 34004KT 19/19 A3007 RMK A01 T01910185  RH  097%=      5-min Rain = 0
KST3 131024Z 35003KT 19/19 A3006 RMK A01 T01910186  RH  097%=      5-min Rain = 0
KST3 131025Z 35003KT 19/19 A3006 RMK A01 T01910186  RH  097%=      5-min Rain = 0
KST3 131026Z 35003KT 19/19 A3006 RMK A01 T01910186  RH  097%=      5-min Rain = 0
KST3 131027Z 35003KT 19/19 A3006 RMK A01 T01910186  RH  097%=      5-min Rain = 0
KST3 131028Z 36003KT 19/19 A3006 RMK A01 T01910186  RH  097%=      5-min Rain = 0
KST3 131029Z 36002KT 19/19 A3006 RMK A01 T01900186  RH  097%=      5-min Rain = 0
KST3 131030Z 35002KT 19/19 A3006 RMK A01 T01910186  RH  097%=      5-min Rain = 0
KST3 131031Z 35002KT 19/19 A3006 RMK A01 T01900186  RH  097%=      5-min Rain = 0
KST3 131032Z 35002KT 19/19 A3006 RMK A01 T01900186  RH  097%=      5-min Rain = 0
KST3 131033Z 35002KT 19/19 A3006 RMK A01 T01890185  RH  097%=      5-min Rain = 0
KST3 131034Z 35002KT 19/19 A3006 RMK A01 T01890185  RH  097%=      5-min Rain = 0
KST3 131035Z 35001KT 19/19 A3006 RMK A01 T01890186  RH  098%=      5-min Rain = 0
KST3 131036Z 35002KT 19/19 A3006 RMK A01 T01900187  RH  098%=      5-min Rain = 0
KST3 131037Z 35002KT 19/19 A3007 RMK A01 T01910187  RH  098%=      5-min Rain = 0
KST3 131038Z 35002KT 19/19 A3007 RMK A01 T01910187  RH  098%=      5-min Rain = 0
KST3 131039Z 35003KT 19/19 A3007 RMK A01 T01910187  RH  097%=      5-min Rain = 0
KST3 131040Z 35003KT 19/19 A3007 RMK A01 T01910187  RH  097%=      5-min Rain = 0
KST3 131041Z 35003KT 19/19 A3007 RMK A01 T01910186  RH  097%=      5-min Rain = 0
KST3 131042Z 35003KT 19/19 A3007 RMK A01 T01900185  RH  097%=      5-min Rain = 0
KST3 131043Z 35003KT 19/18 A3007 RMK A01 T01890184  RH  097%=      5-min Rain = 0
KST3 131044Z 35003KT 19/18 A3007 RMK A01 T01890184  RH  097%=      5-min Rain = 0
KST3 131045Z 35004KT 19/18 A3007 RMK A01 T01890184  RH  097%=      5-min Rain = 0
KST3 131046Z 35004KT 19/18 A3007 RMK A01 T01880184  RH  098%=      5-min Rain = 0
KST3 131047Z 35004KT 19/18 A3007 RMK A01 T01880184  RH  098%=      5-min Rain = 0
KST3 131048Z 34004KT 19/18 A3007 RMK A01 T01870184  RH  098%=      5-min Rain = 0
KST3 131049Z 34004KT 19/18 A3007 RMK A01 T01870184  RH  098%=      5-min Rain = 0
KST3 131050Z 35004KT 19/18 A3007 RMK A01 T01860184  RH  098%=      5-min Rain = 0
KST3 131051Z 35004KT 19/19 A3007 RMK A01 T01870185  RH  099%=      5-min Rain = 0
KST3 131052Z 35003KT 19/19 A3007 RMK A01 T01870185  RH  099%=      5-min Rain = 0
KST3 131053Z 36003KT 19/19 A3007 RMK A01 T01870185  RH  099%=      5-min Rain = 0
KST3 131054Z 00003KT 19/19 A3007 RMK A01 T01880186  RH  099%=      5-min Rain = 0
KST3 131055Z 00003KT 19/19 A3008 RMK A01 T01880186  RH  099%=      5-min Rain = 0
KST3 131056Z 00003KT 19/19 A3008 RMK A01 T01890187  RH  099%=      5-min Rain = 0
KST3 131057Z 00003KT 19/19 A3008 RMK A01 T01900187  RH  099%=      5-min Rain = 0
KST3 131058Z 00003KT 19/19 A3008 RMK A01 T01900187  RH  098%=      5-min Rain = 0
KST3 131059Z 36003KT 19/19 A3008 RMK A01 T01900187  RH  098%=      5-min Rain = 0
KST3 131100Z 35004KT 19/19 A3008 RMK A01 T01900186  RH  098%=      5-min Rain = 0
KST3 131106Z 33005KT 19/18 A3008 RMK A01 T01870184  RH  098%=      5-min Rain = 0
KST3 131107Z 33005KT 19/18 A3008 RMK A01 T01870184  RH  098%=      5-min Rain = 0
KST3 131108Z 34005KT 19/19 A3007 RMK A01 T01870185  RH  098%=      5-min Rain = 0
KST3 131109Z 34005KT 19/19 A3007 RMK A01 T01870185  RH  099%=      5-min Rain = 0
KST3 131110Z 34005KT 19/19 A3007 RMK A01 T01870185  RH  099%=      5-min Rain = 0
KST3 131111Z 34004KT 19/19 A3007 RMK A01 T01870185  RH  099%=      5-min Rain = 0
KST3 131112Z 34005KT 19/19 A3007 RMK A01 T01870185  RH  099%=      5-min Rain = 0
KST3 131113Z 34005KT 19/19 A3007 RMK A01 T01870185  RH  099%=      5-min Rain = 0
KST3 131114Z 34005KT 19/19 A3007 RMK A01 T01870185  RH  099%=      5-min Rain = 0
KST3 131115Z 34005KT 19/19 A3007 RMK A01 T01870185  RH  099%=      5-min Rain = 0
KST3 131116Z 33005KT 19/19 A3007 RMK A01 T01870185  RH  099%=      5-min Rain = 0
KST3 131117Z 34005KT 19/19 A3008 RMK A01 T01870185  RH  099%=      5-min Rain = 0
KST3 131118Z 34005KT 19/19 A3008 RMK A01 T01870185  RH  099%=      5-min Rain = 0
KST3 131119Z 34005KT 19/19 A3008 RMK A01 T01870185  RH  099%=      5-min Rain = 0
KST3 131120Z 34006KT 19/19 A3008 RMK A01 T01870185  RH  099%=      5-min Rain = 0
KST3 131121Z 34006KT 19/19 A3008 RMK A01 T01870185  RH  099%=      5-min Rain = 0
KST3 131122Z 34006KT 19/19 A3008 RMK A01 T01870185  RH  099%=      5-min Rain = 0
KST3 131123Z 34005KT 19/19 A3008 RMK A01 T01870185  RH  099%=      5-min Rain = 0
KST3 131124Z 34005KT 19/19 A3008 RMK A01 T01870185  RH  099%=      5-min Rain = 0
KST3 131125Z 34005KT 19/19 A3008 RMK A01 T01870185  RH  099%=      5-min Rain = 0
KST3 131126Z 34005KT 19/19 A3008 RMK A01 T01870185  RH  099%=      5-min Rain = 0
KST3 131127Z 34005KT 19/19 A3008 RMK A01 T01870185  RH  099%=      5-min Rain = 0
KST3 131128Z 34005KT 19/18 A3008 RMK A01 T01860184  RH  099%=      5-min Rain = 0
KST3 131129Z 34005KT 19/18 A3008 RMK A01 T01860184  RH  099%=      5-min Rain = 0
KST3 131130Z 34006KT 19/18 A3008 RMK A01 T01860184  RH  099%=      5-min Rain = 0
KST3 131131Z 34005KT 19/19 A3008 RMK A01 T01860185  RH  099%=      5-min Rain = 0
KST3 131132Z 34006KT 19/19 A3008 RMK A01 T01860185  RH  099%=      5-min Rain = 0
KST3 131133Z 34005KT 19/19 A3008 RMK A01 T01860185  RH  099%=      5-min Rain = 0
KST3 131134Z 34005KT 19/19 A3008 RMK A01 T01860185  RH  099%=      5-min Rain = 0
KST3 131135Z 33005KT 19/19 A3008 RMK A01 T01860185  RH  099%=      5-min Rain = 0
KST3 131136Z 33005KT 19/19 A3009 RMK A01 T01860185  RH  099%=      5-min Rain = 0
KST3 131137Z 33005KT 19/19 A3009 RMK A01 T01860185  RH  099%=      5-min Rain = 0
KST3 131138Z 33005KT 19/18 A3009 RMK A01 T01860184  RH  099%=      5-min Rain = 0
KST3 131139Z 33005KT 19/18 A3009 RMK A01 T01860184  RH  099%=      5-min Rain = 0
KST3 131140Z 33006KT 19/19 A3009 RMK A01 T01860185  RH  099%=      5-min Rain = 0
KST3 131141Z 33006KT 19/18 A3009 RMK A01 T01860184  RH  099%=      5-min Rain = 0
KST3 131142Z 33006KT 19/18 A3009 RMK A01 T01860184  RH  099%=      5-min Rain = 0
KST3 131143Z 32006KT 19/18 A3009 RMK A01 T01860184  RH  099%=      5-min Rain = 0
KST3 131144Z 33006KT 19/18 A3009 RMK A01 T01860184  RH  099%=      5-min Rain = 0
KST3 131145Z 33006KT 19/18 A3009 RMK A01 T01860184  RH  099%=      5-min Rain = 0
KST3 131146Z 33006KT 19/18 A3009 RMK A01 T01860184  RH  099%=      5-min Rain = 0
KST3 131147Z 33006KT 19/18 A3009 RMK A01 T01860184  RH  099%=      5-min Rain = 0
KST3 131148Z 32006KT 19/18 A3009 RMK A01 T01860184  RH  099%=      5-min Rain = 0
KST3 131149Z 32007KT 19/18 A3009 RMK A01 T01860184  RH  099%=      5-min Rain = 0
KST3 131150Z 32006KT 19/18 A3009 RMK A01 T01860184  RH  099%=      5-min Rain = 0
KST3 131151Z 32006KT 19/18 A3009 RMK A01 T01860184  RH  099%=      5-min Rain = 0
KST3 131152Z 32006KT 19/18 A301 RMK A01 T01860184  RH  099%=      5-min Rain = 0
KST3 131153Z 33006KT 19/18 A301 RMK A01 T01860184  RH  099%=      5-min Rain = 0
KST3 131154Z 33006KT 19/18 A301 RMK A01 T01860184  RH  099%=      5-min Rain = 0
KST3 131155Z 33006KT 19/19 A301 RMK A01 T01860185  RH  099%=      5-min Rain = 0
KST3 131156Z 33006KT 19/18 A301 RMK A01 T01860184  RH  099%=      5-min Rain = 0
KST3 131157Z 33006KT 19/18 A3009 RMK A01 T01850184  RH  099%=      5-min Rain = 0
KST3 131158Z 33006KT 19/18 A3009 RMK A01 T01850184  RH  099%=      5-min Rain = 0
KST3 131159Z 33006KT 19/18 A3009 RMK A01 T01850184  RH  099%=      5-min Rain = 0
KST3 131200Z 33006KT 19/18 A3009 RMK A01 T01850184  RH  099%=      5-min Rain = 0
KST3 131201Z 33006KT 19/18 A3009 RMK A01 T01850184  RH  099%=      5-min Rain = 0
KST3 131202Z 33006KT 19/18 A3009 RMK A01 T01850184  RH  099%=      5-min Rain = 0
KST3 131203Z 33005KT 19/18 A3009 RMK A01 T01850184  RH  099%=      5-min Rain = 0
KST3 131204Z 33005KT 19/18 A3009 RMK A01 T01850184  RH  099%=      5-min Rain = 0
KST3 131205Z 33005KT 19/18 A3009 RMK A01 T01850184  RH  099%=      5-min Rain = 0
KST3 131206Z 33005KT 19/18 A3009 RMK A01 T01850184  RH  099%=      5-min Rain = 0
KST3 131207Z 33005KT 19/18 A3009 RMK A01 T01850184  RH  099%=      5-min Rain = 0
KST3 131208Z 34005KT 19/18 A3009 RMK A01 T01850184  RH  099%=      5-min Rain = 0
KST3 131209Z 33004KT 19/18 A3009 RMK A01 T01850184  RH  099%=      5-min Rain = 0
KST3 131210Z 34004KT 19/18 A3009 RMK A01 T01860184  RH  099%=      5-min Rain = 0
KST3 131211Z 34005KT 19/18 A3009 RMK A01 T01860184  RH  099%=      5-min Rain = 0
KST3 131212Z 34004KT 19/18 A3009 RMK A01 T01860184  RH  099%=      5-min Rain = 0
KST3 131213Z 34004KT 19/18 A3009 RMK A01 T01850184  RH  099%=      5-min Rain = 0
KST3 131214Z 34004KT 19/18 A3009 RMK A01 T01850184  RH  099%=      5-min Rain = 0
KST3 131215Z 34004KT 19/18 A3009 RMK A01 T01860184  RH  099%=      5-min Rain = 0
KST3 131216Z 35003KT 19/18 A3009 RMK A01 T01850184  RH  099%=      5-min Rain = 0
KST3 131217Z 35003KT 19/18 A3009 RMK A01 T01860184  RH  099%=      5-min Rain = 0
KST3 131218Z 35003KT 19/18 A3009 RMK A01 T01860184  RH  099%=      5-min Rain = 0
KST3 131219Z 34004KT 19/18 A3009 RMK A01 T01860184  RH  099%=      5-min Rain = 0
KST3 131220Z 34005KT 19/19 A3009 RMK A01 T01860185  RH  099%=      5-min Rain = 0
KST3 131221Z 34005KT 19/19 A3009 RMK A01 T01860185  RH  099%=      5-min Rain = 0
KST3 131222Z 34006KT 19/19 A3009 RMK A01 T01870185  RH  099%=      5-min Rain = 0
KST3 131223Z 34006KT 19/19 A3009 RMK A01 T01870185  RH  099%=      5-min Rain = 0
KST3 131224Z 34005KT 19/19 A3009 RMK A01 T01870185  RH  099%=      5-min Rain = 0
KST3 131225Z 34005KT 19/19 A3009 RMK A01 T01880185  RH  098%=      5-min Rain = 0
KST3 131226Z 35004KT 19/19 A301 RMK A01 T01880185  RH  098%=      5-min Rain = 0
KST3 131227Z 35004KT 19/19 A301 RMK A01 T01880185  RH  098%=      5-min Rain = 0
KST3 131228Z 36004KT 19/19 A301 RMK A01 T01880185  RH  098%=      5-min Rain = 0
KST3 131229Z 01003KT 19/19 A301 RMK A01 T01880185  RH  098%=      5-min Rain = 0
KST3 131230Z 00003KT 19/19 A301 RMK A01 T01880185  RH  098%=      5-min Rain = 0
KST3 131231Z 35003KT 19/19 A301 RMK A01 T01880185  RH  098%=      5-min Rain = 0
KST3 131232Z 35004KT 19/19 A301 RMK A01 T01880185  RH  098%=      5-min Rain = 0
KST3 131233Z 34004KT 19/19 A301 RMK A01 T01880185  RH  098%=      5-min Rain = 0
KST3 131234Z 34005KT 19/19 A301 RMK A01 T01890186  RH  098%=      5-min Rain = 0
KST3 131235Z 34005KT 19/19 A301 RMK A01 T01890185  RH  098%=      5-min Rain = 0
KST3 131236Z 34005KT 19/19 A301 RMK A01 T01890185  RH  098%=      5-min Rain = 0
KST3 131237Z 33006KT 19/19 A301 RMK A01 T01890186  RH  098%=      5-min Rain = 0
KST3 131238Z 33005KT 19/19 A301 RMK A01 T01890186  RH  098%=      5-min Rain = 0
KST3 131239Z 34006KT 19/19 A301 RMK A01 T01900187  RH  098%=      5-min Rain = 0
KST3 131240Z 34006KT 19/19 A301 RMK A01 T01900187  RH  098%=      5-min Rain = 0
KST3 131241Z 34007KT 19/19 A301 RMK A01 T01900187  RH  098%=      5-min Rain = 0
KST3 131242Z 34006KT 19/19 A301 RMK A01 T01910188  RH  098%=      5-min Rain = 0
KST3 131243Z 34006KT 19/19 A301 RMK A01 T01910188  RH  098%=      5-min Rain = 0
KST3 131244Z 34006KT 19/19 A301 RMK A01 T01920188  RH  098%=      5-min Rain = 0
KST3 131245Z 34006KT 19/19 A301 RMK A01 T01930189  RH  098%=      5-min Rain = 0
KST3 131246Z 34006KT 19/19 A3011 RMK A01 T01930189  RH  098%=      5-min Rain = 0
KST3 131247Z 34006KT 19/19 A3011 RMK A01 T01930189  RH  097%=      5-min Rain = 0
KST3 131248Z 34005KT 19/19 A3011 RMK A01 T01940190  RH  097%=      5-min Rain = 0
KST3 131249Z 35007KT 20/19 A3011 RMK A01 T01950190  RH  097%=      5-min Rain = 0
KST3 131250Z 34007KT 20/19 A3011 RMK A01 T01950190  RH  097%=      5-min Rain = 0
KST3 131251Z 34007KT 20/19 A3011 RMK A01 T01950190  RH  097%=      5-min Rain = 0
KST3 131252Z 34007KT 20/19 A3011 RMK A01 T01950190  RH  097%=      5-min Rain = 0
KST3 131253Z 35007KT 20/19 A3011 RMK A01 T01950190  RH  097%=      5-min Rain = 0
KST3 131254Z 35006KT 20/19 A3011 RMK A01 T01950190  RH  097%=      5-min Rain = 0
KST3 131255Z 35005KT 20/19 A3011 RMK A01 T01960190  RH  097%=      5-min Rain = 0
KST3 131256Z 35005KT 20/19 A3012 RMK A01 T01960190  RH  096%=      5-min Rain = 0
KST3 131257Z 35006KT 20/19 A3012 RMK A01 T01960191  RH  096%=      5-min Rain = 0
KST3 131258Z 35006KT 20/19 A3012 RMK A01 T01970191  RH  096%=      5-min Rain = 0
KST3 131259Z 34006KT 20/19 A3012 RMK A01 T01970192  RH  096%=      5-min Rain = 0
KST3 131300Z 35006KT 20/19 A3012 RMK A01 T01980192  RH  096%=      5-min Rain = 0
KST3 131301Z 35006KT 20/19 A3012 RMK A01 T01980192  RH  096%=      5-min Rain = 0
KST3 131302Z 34007KT 20/19 A3012 RMK A01 T01990193  RH  096%=      5-min Rain = 0
KST3 131303Z 34006KT 20/19 A3012 RMK A01 T01990192  RH  096%=      5-min Rain = 0
KST3 131304Z 34006KT 20/19 A3012 RMK A01 T01990193  RH  096%=      5-min Rain = 0
KST3 131305Z 35006KT 20/19 A3012 RMK A01 T02000192  RH  096%=      5-min Rain = 0
KST3 131306Z 34007KT 20/19 A3012 RMK A01 T02000192  RH  095%=      5-min Rain = 0
KST3 131307Z 34007KT 20/19 A3012 RMK A01 T02000192  RH  095%=      5-min Rain = 0
KST3 131308Z 34006KT 20/19 A3012 RMK A01 T02000192  RH  095%=      5-min Rain = 0
KST3 131309Z 34005KT 20/19 A3012 RMK A01 T02010193  RH  095%=      5-min Rain = 0
KST3 131310Z 34006KT 20/19 A3012 RMK A01 T02010194  RH  095%=      5-min Rain = 0
KST3 131311Z 33006KT 20/20 A3012 RMK A01 T02020195  RH  096%=      5-min Rain = 0
KST3 131312Z 33007KT 20/19 A3012 RMK A01 T02020194  RH  095%=      5-min Rain = 0
KST3 131313Z 33007KT 20/19 A3012 RMK A01 T02020194  RH  095%=      5-min Rain = 0
KST3 131314Z 33007KT 20/19 A3012 RMK A01 T02020194  RH  095%=      5-min Rain = 0
KST3 131315Z 34006KT 20/19 A3012 RMK A01 T02020194  RH  095%=      5-min Rain = 0
KST3 131316Z 34007KT 20/20 A3012 RMK A01 T02030195  RH  095%=      5-min Rain = 0
KST3 131317Z 34008KT 20/19 A3012 RMK A01 T02040194  RH  094%=      5-min Rain = 0
KST3 131318Z 34007KT 20/19 A3012 RMK A01 T02040194  RH  094%=      5-min Rain = 0
KST3 131319Z 34007KT 20/19 A3012 RMK A01 T02040194  RH  094%=      5-min Rain = 0
KST3 131320Z 34006KT 20/19 A3012 RMK A01 T02040194  RH  094%=      5-min Rain = 0
KST3 131321Z 34005KT 21/20 A3012 RMK A01 T02050195  RH  094%=      5-min Rain = 0
KST3 131322Z 34005KT 21/20 A3012 RMK A01 T02060198  RH  095%=      5-min Rain = 0
KST3 131323Z 34005KT 21/20 A3012 RMK A01 T02070197  RH  094%=      5-min Rain = 0
KST3 131324Z 34005KT 21/20 A3012 RMK A01 T02080197  RH  093%=      5-min Rain = 0
KST3 131325Z 34005KT 21/20 A3012 RMK A01 T02080195  RH  092%=      5-min Rain = 0
KST3 131326Z 35005KT 21/20 A3012 RMK A01 T02080196  RH  092%=      5-min Rain = 0
KST3 131327Z 35005KT 21/20 A3012 RMK A01 T02080195  RH  092%=      5-min Rain = 0
KST3 131328Z 34005KT 21/20 A3012 RMK A01 T02090197  RH  092%=      5-min Rain = 0
KST3 131329Z 34005KT 21/20 A3012 RMK A01 T02100197  RH  092%=      5-min Rain = 0
KST3 131330Z 34006KT 21/20 A3012 RMK A01 T02100198  RH  092%=      5-min Rain = 0
KST3 131331Z 34006KT 21/20 A3012 RMK A01 T02100195  RH  091%=      5-min Rain = 0
KST3 131332Z 35005KT 21/20 A3012 RMK A01 T02100195  RH  091%=      5-min Rain = 0
KST3 131333Z 34005KT 21/20 A3012 RMK A01 T02110195  RH  091%=      5-min Rain = 0
KST3 131334Z 34004KT 21/20 A3012 RMK A01 T02110197  RH  092%=      5-min Rain = 0
KST3 131335Z 34006KT 21/20 A3012 RMK A01 T02120197  RH  091%=      5-min Rain = 0
KST3 131336Z 34005KT 21/20 A3012 RMK A01 T02120196  RH  090%=      5-min Rain = 0
KST3 131337Z 34005KT 21/20 A3012 RMK A01 T02130196  RH  090%=      5-min Rain = 0
KST3 131338Z 34005KT 21/20 A3012 RMK A01 T02130195  RH  090%=      5-min Rain = 0
KST3 131339Z 34004KT 21/20 A3012 RMK A01 T02120196  RH  090%=      5-min Rain = 0
KST3 131340Z 34004KT 21/20 A3012 RMK A01 T02120199  RH  092%=      5-min Rain = 0
KST3 131341Z 34005KT 21/20 A3012 RMK A01 T02130198  RH  091%=      5-min Rain = 0
KST3 131342Z 34006KT 21/20 A3012 RMK A01 T02130196  RH  090%=      5-min Rain = 0
KST3 131343Z 34006KT 21/20 A3012 RMK A01 T02130196  RH  090%=      5-min Rain = 0
KST3 131344Z 34005KT 21/20 A3013 RMK A01 T02140196  RH  089%=      5-min Rain = 0
KST3 131345Z 34003KT 21/20 A3013 RMK A01 T02130198  RH  091%=      5-min Rain = 0
KST3 131346Z 35005KT 22/20 A3013 RMK A01 T02150200  RH  091%=      5-min Rain = 0
KST3 131347Z 35006KT 22/20 A3012 RMK A01 T02160197  RH  089%=      5-min Rain = 0
KST3 131348Z 34005KT 22/20 A3012 RMK A01 T02160197  RH  089%=      5-min Rain = 0
KST3 131349Z 34005KT 22/20 A3012 RMK A01 T02170197  RH  089%=      5-min Rain = 0
KST3 131350Z 36004KT 22/20 A3013 RMK A01 T02160198  RH  089%=      5-min Rain = 0
KST3 131351Z 00004KT 22/20 A3013 RMK A01 T02180202  RH  091%=      5-min Rain = 0
KST3 131352Z 00004KT 22/20 A3013 RMK A01 T02200204  RH  091%=      5-min Rain = 0
KST3 131353Z 01004KT 22/20 A3013 RMK A01 T02200199  RH  087%=      5-min Rain = 0
KST3 131354Z 01005KT 22/20 A3013 RMK A01 T02200199  RH  087%=      5-min Rain = 0
KST3 131355Z 01005KT 22/20 A3013 RMK A01 T02210198  RH  087%=      5-min Rain = 0
KST3 131356Z 00005KT 22/20 A3013 RMK A01 T02210197  RH  087%=      5-min Rain = 0
KST3 131357Z 36005KT 22/20 A3013 RMK A01 T02210197  RH  087%=      5-min Rain = 0
KST3 131358Z 00005KT 22/20 A3013 RMK A01 T02210196  RH  086%=      5-min Rain = 0
KST3 131359Z 00005KT 22/20 A3013 RMK A01 T02210196  RH  086%=      5-min Rain = 0
KST3 131400Z 35005KT 22/20 A3013 RMK A01 T02210197  RH  086%=      5-min Rain = 0
KST3 131401Z 36006KT 22/20 A3013 RMK A01 T02230198  RH  086%=      5-min Rain = 0
KST3 131402Z 36005KT 22/20 A3013 RMK A01 T02230196  RH  084%=      5-min Rain = 0
KST3 131403Z 35006KT 22/19 A3013 RMK A01 T02240194  RH  083%=      5-min Rain = 0
KST3 131404Z 35006KT 22/19 A3013 RMK A01 T02240194  RH  083%=      5-min Rain = 0
KST3 131405Z 34005KT 22/20 A3013 RMK A01 T02230196  RH  084%=      5-min Rain = 0
KST3 131406Z 34005KT 23/20 A3013 RMK A01 T02250197  RH  084%=      5-min Rain = 0
KST3 131407Z 35005KT 23/20 A3013 RMK A01 T02250198  RH  085%=      5-min Rain = 0
KST3 131408Z 35005KT 23/20 A3013 RMK A01 T02270199  RH  085%=      5-min Rain = 0
KST3 131409Z 35006KT 23/20 A3013 RMK A01 T02280196  RH  082%=      5-min Rain = 0
KST3 131410Z 36006KT 23/20 A3013 RMK A01 T02280195  RH  082%=      5-min Rain = 0
KST3 131411Z 00007KT 23/20 A3013 RMK A01 T02280195  RH  081%=      5-min Rain = 0
KST3 131412Z 36006KT 23/20 A3013 RMK A01 T02280196  RH  082%=      5-min Rain = 0
KST3 131413Z 36006KT 23/20 A3013 RMK A01 T02290196  RH  081%=      5-min Rain = 0
KST3 131414Z 36007KT 23/20 A3013 RMK A01 T02300195  RH  081%=      5-min Rain = 0
KST3 131415Z 00007KT 23/20 A3013 RMK A01 T02300195  RH  081%=      5-min Rain = 0
KST3 131416Z 35006KT 23/19 A3013 RMK A01 T02300194  RH  080%=      5-min Rain = 0
KST3 131417Z 35006KT 23/19 A3013 RMK A01 T02300194  RH  080%=      5-min Rain = 0
KST3 131418Z 35006KT 23/20 A3013 RMK A01 T02300196  RH  081%=      5-min Rain = 0
KST3 131419Z 00006KT 23/20 A3013 RMK A01 T02300197  RH  081%=      5-min Rain = 0
KST3 131420Z 01006KT 23/20 A3013 RMK A01 T02310196  RH  081%=      5-min Rain = 0
KST3 131421Z 36007KT 23/20 A3013 RMK A01 T02310196  RH  081%=      5-min Rain = 0
KST3 131422Z 35007KT 23/19 A3013 RMK A01 T02320193  RH  079%=      5-min Rain = 0
KST3 131423Z 35007KT 23/19 A3013 RMK A01 T02320194  RH  079%=      5-min Rain = 0
KST3 131424Z 00007KT 23/19 A3013 RMK A01 T02320194  RH  079%=      5-min Rain = 0
KST3 131425Z 00006KT 23/20 A3013 RMK A01 T02330196  RH  080%=      5-min Rain = 0
KST3 131426Z 01006KT 24/20 A3013 RMK A01 T02350197  RH  080%=      5-min Rain = 0
KST3 131427Z 02007KT 24/20 A3013 RMK A01 T02350196  RH  078%=      5-min Rain = 0
KST3 131428Z 02006KT 24/20 A3013 RMK A01 T02350196  RH  079%=      5-min Rain = 0
KST3 131429Z 01006KT 24/20 A3013 RMK A01 T02350197  RH  079%=      5-min Rain = 0
KST3 131430Z 01006KT 24/20 A3013 RMK A01 T02350196  RH  079%=      5-min Rain = 0
KST3 131431Z 02006KT 24/20 A3013 RMK A01 T02350200  RH  080%=      5-min Rain = 0
KST3 131432Z 02007KT 24/20 A3013 RMK A01 T02370196  RH  078%=      5-min Rain = 0
KST3 131433Z 02007KT 24/20 A3013 RMK A01 T02370196  RH  078%=      5-min Rain = 0
KST3 131434Z 01006KT 24/20 A3013 RMK A01 T02360195  RH  078%=      5-min Rain = 0
KST3 131435Z 01005KT 24/20 A3013 RMK A01 T02360195  RH  077%=      5-min Rain = 0
KST3 131436Z 03007KT 24/20 A3013 RMK A01 T02360195  RH  077%=      5-min Rain = 0
KST3 131437Z 03005KT 24/19 A3013 RMK A01 T02360194  RH  078%=      5-min Rain = 0
KST3 131438Z 04006KT 24/19 A3013 RMK A01 T02350193  RH  077%=      5-min Rain = 0
KST3 131439Z 03005KT 24/19 A3013 RMK A01 T02350194  RH  078%=      5-min Rain = 0
KST3 131440Z 03004KT 24/19 A3013 RMK A01 T02360193  RH  076%=      5-min Rain = 0
KST3 131441Z 02003KT 24/19 A3013 RMK A01 T02350193  RH  077%=      5-min Rain = 0
KST3 131442Z 02005KT 24/20 A3013 RMK A01 T02360197  RH  078%=      5-min Rain = 0
KST3 131443Z 00006KT 24/20 A3013 RMK A01 T02380196  RH  077%=      5-min Rain = 0
KST3 131444Z 03006KT 24/20 A3013 RMK A01 T02390196  RH  077%=      5-min Rain = 0
KST3 131445Z 04006KT 24/20 A3013 RMK A01 T02390196  RH  077%=      5-min Rain = 0
KST3 131446Z 04005KT 24/19 A3013 RMK A01 T02390194  RH  076%=      5-min Rain = 0
KST3 131447Z 02006KT 24/20 A3013 RMK A01 T02390195  RH  076%=      5-min Rain = 0
KST3 131448Z 02004KT 24/20 A3013 RMK A01 T02400196  RH  076%=      5-min Rain = 0
KST3 131449Z 05005KT 24/20 A3013 RMK A01 T02410196  RH  076%=      5-min Rain = 0
KST3 131450Z 05006KT 24/20 A3014 RMK A01 T02420196  RH  076%=      5-min Rain = 0
KST3 131451Z 05004KT 24/20 A3014 RMK A01 T02420196  RH  075%=      5-min Rain = 0
KST3 131452Z 04007KT 24/20 A3014 RMK A01 T02430197  RH  075%=      5-min Rain = 0
KST3 131453Z 04005KT 24/20 A3014 RMK A01 T02440197  RH  075%=      5-min Rain = 0
KST3 131454Z 04004KT 24/20 A3014 RMK A01 T02430195  RH  074%=      5-min Rain = 0
KST3 131455Z 05004KT 24/20 A3014 RMK A01 T02430196  RH  075%=      5-min Rain = 0
KST3 131456Z 05005KT 24/20 A3014 RMK A01 T02430197  RH  075%=      5-min Rain = 0
KST3 131457Z 04006KT 24/20 A3014 RMK A01 T02440197  RH  075%=      5-min Rain = 0
KST3 131458Z 04007KT 25/20 A3014 RMK A01 T02450196  RH  074%=      5-min Rain = 0
KST3 131459Z 03004KT 24/20 A3014 RMK A01 T02440195  RH  074%=      5-min Rain = 0
KST3 131500Z 02003KT 24/20 A3014 RMK A01 T02440195  RH  074%=      5-min Rain = 0
KST3 131501Z 02005KT 24/19 A3014 RMK A01 T02440194  RH  074%=      5-min Rain = 0
KST3 131502Z 05006KT 24/20 A3014 RMK A01 T02430196  RH  075%=      5-min Rain = 0
KST3 131503Z 04005KT 24/19 A3014 RMK A01 T02430194  RH  074%=      5-min Rain = 0
KST3 131504Z 06005KT 24/20 A3014 RMK A01 T02440196  RH  075%=      5-min Rain = 0
KST3 131505Z 06003KT 24/19 A3014 RMK A01 T02440194  RH  074%=      5-min Rain = 0
KST3 131506Z 05003KT 24/19 A3014 RMK A01 T02440194  RH  074%=      5-min Rain = 0
KST3 131507Z 03005KT 25/20 A3014 RMK A01 T02450197  RH  075%=      5-min Rain = 0
KST3 131508Z 03005KT 25/20 A3014 RMK A01 T02460196  RH  074%=      5-min Rain = 0
KST3 131509Z 04004KT 25/19 A3014 RMK A01 T02460194  RH  073%=      5-min Rain = 0
KST3 131510Z 03006KT 25/20 A3014 RMK A01 T02460195  RH  073%=      5-min Rain = 0
KST3 131511Z 02005KT 25/19 A3014 RMK A01 T02460194  RH  073%=      5-min Rain = 0
KST3 131512Z 01004KT 25/19 A3014 RMK A01 T02460194  RH  073%=      5-min Rain = 0
KST3 131513Z 03004KT 25/20 A3014 RMK A01 T02460195  RH  073%=      5-min Rain = 0
KST3 131514Z 05004KT 25/20 A3014 RMK A01 T02470197  RH  074%=      5-min Rain = 0
KST3 131515Z 05004KT 25/20 A3014 RMK A01 T02470195  RH  073%=      5-min Rain = 0
KST3 131516Z 06004KT 25/20 A3014 RMK A01 T02480198  RH  074%=      5-min Rain = 0
KST3 131517Z 05006KT 25/20 A3014 RMK A01 T02490195  RH  072%=      5-min Rain = 0
KST3 131518Z 02005KT 25/19 A3014 RMK A01 T02480194  RH  072%=      5-min Rain = 0
KST3 131519Z 01004KT 25/19 A3014 RMK A01 T02480194  RH  072%=      5-min Rain = 0
KST3 131520Z 02003KT 25/20 A3014 RMK A01 T02480195  RH  073%=      5-min Rain = 0
KST3 131521Z 04004KT 25/20 A3014 RMK A01 T02500198  RH  073%=      5-min Rain = 0
KST3 131522Z 05006KT 25/20 A3014 RMK A01 T02520196  RH  071%=      5-min Rain = 0
KST3 131523Z 05007KT 25/20 A3014 RMK A01 T02520196  RH  071%=      5-min Rain = 0
KST3 131524Z 03005KT 25/19 A3014 RMK A01 T02510194  RH  071%=      5-min Rain = 0
KST3 131525Z 02003KT 25/20 A3014 RMK A01 T02490195  RH  072%=      5-min Rain = 0
KST3 131526Z 02003KT 25/20 A3014 RMK A01 T02480195  RH  072%=      5-min Rain = 0
KST3 131527Z 03007KT 25/20 A3014 RMK A01 T02500196  RH  072%=      5-min Rain = 0
KST3 131528Z 03004KT 25/19 A3015 RMK A01 T02500194  RH  071%=      5-min Rain = 0
KST3 131529Z 08001KT 25/19 A3015 RMK A01 T02490193  RH  071%=      5-min Rain = 0
KST3 131530Z 06004KT 25/19 A3015 RMK A01 T02490194  RH  071%=      5-min Rain = 0
KST3 131531Z 05003KT 25/20 A3014 RMK A01 T02500196  RH  072%=      5-min Rain = 0
KST3 131532Z 03003KT 25/20 A3014 RMK A01 T02510196  RH  072%=      5-min Rain = 0
KST3 131533Z 02003KT 25/20 A3014 RMK A01 T02530196  RH  071%=      5-min Rain = 0
KST3 131534Z 02004KT 25/20 A3014 RMK A01 T02530195  RH  070%=      5-min Rain = 0
KST3 131535Z 01005KT 25/20 A3014 RMK A01 T02540196  RH  070%=      5-min Rain = 0
KST3 131536Z 35002KT 25/20 A3014 RMK A01 T02540195  RH  070%=      5-min Rain = 0
KST3 131537Z 05003KT 26/20 A3014 RMK A01 T02550197  RH  070%=      5-min Rain = 0
KST3 131538Z 06006KT 26/20 A3014 RMK A01 T02560196  RH  069%=      5-min Rain = 0
KST3 131539Z 05006KT 26/20 A3014 RMK A01 T02570200  RH  071%=      5-min Rain = 0
KST3 131540Z 05007KT 26/20 A3014 RMK A01 T02610199  RH  069%=      5-min Rain = 0
KST3 131541Z 06006KT 26/20 A3014 RMK A01 T02610197  RH  068%=      5-min Rain = 0
KST3 131542Z 05004KT 26/20 A3014 RMK A01 T02590195  RH  068%=      5-min Rain = 0
KST3 131543Z 07003KT 26/20 A3014 RMK A01 T02560195  RH  069%=      5-min Rain = 0
KST3 131544Z 08003KT 26/19 A3014 RMK A01 T02560194  RH  069%=      5-min Rain = 0
KST3 131545Z 10004KT 26/20 A3014 RMK A01 T02560195  RH  069%=      5-min Rain = 0
KST3 131546Z 08003KT 26/20 A3014 RMK A01 T02580195  RH  068%=      5-min Rain = 0
KST3 131547Z 03004KT 26/20 A3014 RMK A01 T02590198  RH  069%=      5-min Rain = 0
KST3 131548Z 01006KT 26/20 A3014 RMK A01 T02600196  RH  067%=      5-min Rain = 0
KST3 131549Z 02005KT 26/20 A3015 RMK A01 T02600195  RH  067%=      5-min Rain = 0
KST3 131550Z 02004KT 26/20 A3015 RMK A01 T02580196  RH  068%=      5-min Rain = 0
KST3 131551Z 02002KT 26/19 A3015 RMK A01 T02570194  RH  068%=      5-min Rain = 0
KST3 131552Z 05001KT 26/19 A3015 RMK A01 T02570194  RH  068%=      5-min Rain = 0
KST3 131553Z 03001KT 26/19 A3015 RMK A01 T02570194  RH  068%=      5-min Rain = 0
KST3 131554Z 00000KT 26/20 A3014 RMK A01 T02580195  RH  068%=      5-min Rain = 0
KST3 131555Z 15001KT 26/20 A3014 RMK A01 T02600199  RH  069%=      5-min Rain = 0
KST3 131556Z 08000KT 26/20 A3014 RMK A01 T02630200  RH  068%=      5-min Rain = 0
KST3 131557Z 06002KT 27/20 A3014 RMK A01 T02660195  RH  065%=      5-min Rain = 0
KST3 131558Z 08002KT 27/20 A3014 RMK A01 T02650196  RH  066%=      5-min Rain = 0
KST3 131559Z 07004KT 27/20 A3014 RMK A01 T02650196  RH  066%=      5-min Rain = 0
KST3 131600Z 07005KT 26/19 A3014 RMK A01 T02640194  RH  065%=      5-min Rain = 0
KST3 131601Z 07006KT 26/20 A3015 RMK A01 T02630197  RH  067%=      5-min Rain = 0
KST3 131602Z 07006KT 26/20 A3015 RMK A01 T02630195  RH  066%=      5-min Rain = 0
KST3 131603Z 05005KT 26/19 A3015 RMK A01 T02620194  RH  066%=      5-min Rain = 0
KST3 131604Z 04004KT 26/20 A3015 RMK A01 T02610195  RH  067%=      5-min Rain = 0
KST3 131605Z 03001KT 26/19 A3015 RMK A01 T02610194  RH  066%=      5-min Rain = 0
KST3 131606Z 03000KT 26/19 A3015 RMK A01 T02610194  RH  067%=      5-min Rain = 0
KST3 131607Z 11002KT 26/20 A3015 RMK A01 T02610196  RH  067%=      5-min Rain = 0
KST3 131608Z 10004KT 26/20 A3015 RMK A01 T02630195  RH  066%=      5-min Rain = 0
KST3 131609Z 09003KT 27/20 A3015 RMK A01 T02650196  RH  066%=      5-min Rain = 0
KST3 131610Z 04003KT 27/20 A3015 RMK A01 T02680200  RH  066%=      5-min Rain = 0
KST3 131611Z 03003KT 27/20 A3015 RMK A01 T02700198  RH  065%=      5-min Rain = 0
KST3 131612Z 02002KT 27/20 A3015 RMK A01 T02710198  RH  064%=      5-min Rain = 0
KST3 131613Z 32002KT 27/20 A3015 RMK A01 T02710196  RH  063%=      5-min Rain = 0
KST3 131614Z 34002KT 27/20 A3015 RMK A01 T02700195  RH  064%=      5-min Rain = 0
KST3 131615Z 34004KT 27/20 A3015 RMK A01 T02690195  RH  064%=      5-min Rain = 0
KST3 131616Z 35003KT 27/20 A3015 RMK A01 T02660197  RH  066%=      5-min Rain = 0
KST3 131617Z 02005KT 27/20 A3015 RMK A01 T02660197  RH  066%=      5-min Rain = 0
KST3 131618Z 02003KT 27/20 A3015 RMK A01 T02670195  RH  065%=      5-min Rain = 0
KST3 131619Z 35002KT 27/20 A3015 RMK A01 T02660195  RH  065%=      5-min Rain = 0
KST3 131620Z 08001KT 27/20 A3015 RMK A01 T02660197  RH  066%=      5-min Rain = 0
KST3 131621Z 09003KT 27/20 A3015 RMK A01 T02680198  RH  066%=      5-min Rain = 0
KST3 131622Z 07003KT 27/20 A3015 RMK A01 T02700199  RH  065%=      5-min Rain = 0
KST3 131623Z 09004KT 27/20 A3015 RMK A01 T02720199  RH  065%=      5-min Rain = 0
KST3 131624Z 11005KT 27/20 A3015 RMK A01 T02720198  RH  064%=      5-min Rain = 0
KST3 131625Z 11004KT 27/20 A3015 RMK A01 T02720199  RH  064%=      5-min Rain = 0
KST3 131626Z 08003KT 27/20 A3015 RMK A01 T02730197  RH  063%=      5-min Rain = 0
KST3 131627Z 05003KT 27/20 A3015 RMK A01 T02720199  RH  064%=      5-min Rain = 0
KST3 131628Z 02004KT 27/20 A3015 RMK A01 T02720198  RH  064%=      5-min Rain = 0
KST3 131629Z 00004KT 27/19 A3015 RMK A01 T02730194  RH  062%=      5-min Rain = 0
KST3 131630Z 00003KT 27/19 A3015 RMK A01 T02720194  RH  062%=      5-min Rain = 0
KST3 131631Z 01003KT 27/20 A3015 RMK A01 T02710197  RH  064%=      5-min Rain = 0
KST3 131632Z 05003KT 27/20 A3015 RMK A01 T02720196  RH  063%=      5-min Rain = 0
KST3 131633Z 07003KT 27/19 A3015 RMK A01 T02720193  RH  062%=      5-min Rain = 0
KST3 131634Z 07002KT 27/20 A3015 RMK A01 T02710197  RH  064%=      5-min Rain = 0
KST3 131635Z 06002KT 27/20 A3015 RMK A01 T02730196  RH  063%=      5-min Rain = 0
KST3 131636Z 36004KT 27/20 A3015 RMK A01 T02740197  RH  063%=      5-min Rain = 0
KST3 131637Z 00002KT 27/20 A3015 RMK A01 T02740195  RH  062%=      5-min Rain = 0
KST3 131638Z 34002KT 27/19 A3015 RMK A01 T02740192  RH  061%=      5-min Rain = 0
KST3 131639Z 34002KT 27/19 A3015 RMK A01 T02740194  RH  062%=      5-min Rain = 0
KST3 131640Z 31002KT 27/19 A3015 RMK A01 T02740193  RH  061%=      5-min Rain = 0
KST3 131641Z 29002KT 27/19 A3015 RMK A01 T02730191  RH  061%=      5-min Rain = 0
KST3 131642Z 27002KT 27/19 A3015 RMK A01 T02720192  RH  062%=      5-min Rain = 0
KST3 131643Z 26002KT 27/19 A3015 RMK A01 T02710194  RH  063%=      5-min Rain = 0
KST3 131644Z 30003KT 27/20 A3015 RMK A01 T02720198  RH  064%=      5-min Rain = 0
KST3 131645Z 29004KT 28/20 A3015 RMK A01 T02750196  RH  062%=      5-min Rain = 0
KST3 131646Z 30003KT 28/20 A3015 RMK A01 T02750195  RH  062%=      5-min Rain = 0
KST3 131647Z 29003KT 28/19 A3015 RMK A01 T02750194  RH  061%=      5-min Rain = 0
KST3 131648Z 30002KT 27/19 A3015 RMK A01 T02740193  RH  061%=      5-min Rain = 0
KST3 131649Z 29002KT 27/19 A3015 RMK A01 T02730193  RH  061%=      5-min Rain = 0
KST3 131650Z 26001KT 27/19 A3015 RMK A01 T02720192  RH  061%=      5-min Rain = 0
KST3 131651Z 23002KT 27/19 A3015 RMK A01 T02720191  RH  061%=      5-min Rain = 0
KST3 131652Z 23001KT 27/19 A3015 RMK A01 T02720190  RH  061%=      5-min Rain = 0
KST3 131653Z 21001KT 27/19 A3015 RMK A01 T02730192  RH  061%=      5-min Rain = 0
KST3 131654Z 32000KT 27/19 A3015 RMK A01 T02740191  RH  061%=      5-min Rain = 0
KST3 131655Z 35001KT 28/19 A3015 RMK A01 T02750194  RH  061%=      5-min Rain = 0
KST3 131656Z 32002KT 28/19 A3015 RMK A01 T02780194  RH  060%=      5-min Rain = 0
KST3 131657Z 33004KT 28/19 A3015 RMK A01 T02800192  RH  059%=      5-min Rain = 0
KST3 131658Z 35004KT 28/20 A3015 RMK A01 T02810195  RH  059%=      5-min Rain = 0
KST3 131659Z 34003KT 28/19 A3015 RMK A01 T02810192  RH  058%=      5-min Rain = 0
KST3 131700Z 32003KT 28/19 A3015 RMK A01 T02800194  RH  059%=      5-min Rain = 0
KST3 131701Z 32002KT 28/19 A3015 RMK A01 T02800192  RH  059%=      5-min Rain = 0
KST3 131702Z 29002KT 28/20 A3015 RMK A01 T02800196  RH  060%=      5-min Rain = 0
KST3 131703Z 30001KT 28/20 A3015 RMK A01 T02810196  RH  060%=      5-min Rain = 0
KST3 131704Z 00001KT 28/20 A3015 RMK A01 T02830200  RH  061%=      5-min Rain = 0
KST3 131705Z 32002KT 29/20 A3015 RMK A01 T02850198  RH  059%=      5-min Rain = 0
KST3 131706Z 02004KT 29/20 A3015 RMK A01 T02860201  RH  060%=      5-min Rain = 0
KST3 131707Z 02005KT 29/20 A3015 RMK A01 T02860197  RH  058%=      5-min Rain = 0
KST3 131708Z 36004KT 28/19 A3015 RMK A01 T02830194  RH  058%=      5-min Rain = 0
KST3 131709Z 32003KT 28/19 A3015 RMK A01 T02810194  RH  059%=      5-min Rain = 0
KST3 131710Z 33002KT 28/20 A3015 RMK A01 T02810195  RH  060%=      5-min Rain = 0
KST3 131711Z 35003KT 28/20 A3015 RMK A01 T02810197  RH  060%=      5-min Rain = 0
KST3 131712Z 03003KT 28/20 A3015 RMK A01 T02820196  RH  060%=      5-min Rain = 0
KST3 131713Z 02001KT 28/20 A3015 RMK A01 T02820196  RH  060%=      5-min Rain = 0
KST3 131714Z 33001KT 28/20 A3015 RMK A01 T02820199  RH  061%=      5-min Rain = 0
KST3 131715Z 00002KT 28/20 A3015 RMK A01 T02820195  RH  059%=      5-min Rain = 0
KST3 131716Z 06003KT 28/20 A3015 RMK A01 T02830195  RH  059%=      5-min Rain = 0
KST3 131717Z 05004KT 28/20 A3015 RMK A01 T02840195  RH  058%=      5-min Rain = 0
KST3 131718Z 06002KT 29/19 A3015 RMK A01 T02860189  RH  056%=      5-min Rain = 0
KST3 131719Z 09003KT 29/19 A3015 RMK A01 T02860190  RH  056%=      5-min Rain = 0
KST3 131720Z 10002KT 29/19 A3015 RMK A01 T02860191  RH  057%=      5-min Rain = 0
KST3 131721Z 03004KT 29/20 A3015 RMK A01 T02850195  RH  058%=      5-min Rain = 0
KST3 131722Z 03006KT 29/20 A3015 RMK A01 T02870195  RH  058%=      5-min Rain = 0
KST3 131723Z 02007KT 29/19 A3015 RMK A01 T02880194  RH  057%=      5-min Rain = 0
KST3 131724Z 02007KT 29/19 A3015 RMK A01 T02880194  RH  057%=      5-min Rain = 0
KST3 131725Z 03006KT 29/19 A3015 RMK A01 T02880194  RH  057%=      5-min Rain = 0
KST3 131726Z 03004KT 29/19 A3015 RMK A01 T02880192  RH  056%=      5-min Rain = 0
KST3 131727Z 03003KT 29/19 A3015 RMK A01 T02870192  RH  057%=      5-min Rain = 0
KST3 131728Z 01006KT 29/19 A3015 RMK A01 T02860193  RH  057%=      5-min Rain = 0
KST3 131729Z 01006KT 29/19 A3015 RMK A01 T02860193  RH  057%=      5-min Rain = 0
KST3 131730Z 35005KT 29/19 A3015 RMK A01 T02870190  RH  056%=      5-min Rain = 0
KST3 131731Z 34005KT 29/19 A3015 RMK A01 T02870189  RH  056%=      5-min Rain = 0
KST3 131732Z 36002KT 29/19 A3015 RMK A01 T02860191  RH  056%=      5-min Rain = 0
KST3 131733Z 03004KT 29/19 A3015 RMK A01 T02880194  RH  057%=      5-min Rain = 0
KST3 131734Z 03003KT 29/19 A3015 RMK A01 T02890191  RH  055%=      5-min Rain = 0
KST3 131735Z 06003KT 29/19 A3015 RMK A01 T02900193  RH  056%=      5-min Rain = 0
KST3 131736Z 07005KT 29/20 A3015 RMK A01 T02910195  RH  056%=      5-min Rain = 0
KST3 131737Z 09006KT 29/19 A3015 RMK A01 T02930191  RH  054%=      5-min Rain = 0
KST3 131738Z 10004KT 29/19 A3015 RMK A01 T02940188  RH  053%=      5-min Rain = 0
KST3 131739Z 09004KT 29/19 A3015 RMK A01 T02940193  RH  055%=      5-min Rain = 0
KST3 131740Z 10005KT 30/19 A3015 RMK A01 T02950188  RH  053%=      5-min Rain = 0
KST3 131741Z 08007KT 30/19 A3015 RMK A01 T02950187  RH  052%=      5-min Rain = 0
KST3 131742Z 08008KT 30/18 A3015 RMK A01 T02950184  RH  051%=      5-min Rain = 0
KST3 131743Z 08007KT 30/18 A3015 RMK A01 T02960184  RH  051%=      5-min Rain = 0
KST3 131744Z 10008KT 30/19 A3015 RMK A01 T02950185  RH  052%=      5-min Rain = 0
KST3 131745Z 09006KT 30/18 A3015 RMK A01 T02950182  RH  051%=      5-min Rain = 0
KST3 131746Z 09004KT 29/18 A3015 RMK A01 T02930183  RH  052%=      5-min Rain = 0
KST3 131747Z 10004KT 29/18 A3015 RMK A01 T02920181  RH  051%=      5-min Rain = 0
KST3 131748Z 12003KT 29/18 A3015 RMK A01 T02910181  RH  052%=      5-min Rain = 0
KST3 131749Z 12004KT 29/19 A3015 RMK A01 T02900187  RH  054%=      5-min Rain = 0
KST3 131750Z 09004KT 29/19 A3015 RMK A01 T02920193  RH  055%=      5-min Rain = 0
KST3 131751Z 07006KT 30/19 A3015 RMK A01 T02950193  RH  054%=      5-min Rain = 0
KST3 131752Z 08006KT 30/19 A3015 RMK A01 T02960191  RH  053%=      5-min Rain = 0
KST3 131753Z 08005KT 30/19 A3015 RMK A01 T02950188  RH  053%=      5-min Rain = 0
KST3 131754Z 08004KT 29/19 A3015 RMK A01 T02920190  RH  054%=      5-min Rain = 0
KST3 131755Z 10005KT 29/19 A3015 RMK A01 T02920188  RH  054%=      5-min Rain = 0
KST3 131756Z 06004KT 29/19 A3015 RMK A01 T02920189  RH  054%=      5-min Rain = 0
KST3 131757Z 07006KT 29/19 A3015 RMK A01 T02930193  RH  055%=      5-min Rain = 0
KST3 131758Z 05008KT 30/19 A3015 RMK A01 T02970192  RH  053%=      5-min Rain = 0
KST3 131759Z 08008KT 30/19 A3015 RMK A01 T02970192  RH  053%=      5-min Rain = 0
KST3 131800Z 09004KT 30/19 A3015 RMK A01 T02970191  RH  053%=      5-min Rain = 0
KST3 131801Z 10005KT 30/19 A3015 RMK A01 T02970191  RH  053%=      5-min Rain = 0
KST3 131802Z 09006KT 30/19 A3015 RMK A01 T02980193  RH  053%=      5-min Rain = 0
KST3 131803Z 09005KT 30/19 A3015 RMK A01 T02990185  RH  050%=      5-min Rain = 0
KST3 131804Z 07003KT 30/19 A3015 RMK A01 T02960185  RH  051%=      5-min Rain = 0
KST3 131805Z 05003KT 30/19 A3015 RMK A01 T02950187  RH  052%=      5-min Rain = 0
KST3 131806Z 05003KT 29/19 A3015 RMK A01 T02940188  RH  053%=      5-min Rain = 0
KST3 131807Z 08003KT 29/19 A3015 RMK A01 T02930191  RH  054%=      5-min Rain = 0
KST3 131808Z 11007KT 29/20 A3015 RMK A01 T02940195  RH  055%=      5-min Rain = 0
KST3 131809Z 09010KT 30/19 A3015 RMK A01 T02980191  RH  053%=      5-min Rain = 0
KST3 131810Z 10009KT 30/19 A3015 RMK A01 T03000185  RH  050%=      5-min Rain = 0
KST3 131811Z 12006KT 30/19 A3015 RMK A01 T02990186  RH  051%=      5-min Rain = 0
KST3 131812Z 13006KT 30/19 A3015 RMK A01 T02980187  RH  051%=      5-min Rain = 0
KST3 131813Z 12005KT 30/19 A3014 RMK A01 T02970187  RH  051%=      5-min Rain = 0
KST3 131814Z 10009G14KT 30/19 A3014 RMK A01 T02970192  RH  053%=      5-min Rain = 0
KST3 131815Z 10014KT 30/19 A3015 RMK A01 T02990189  RH  052%=      5-min Rain = 0
KST3 131816Z 10009KT 30/19 A3015 RMK A01 T02990189  RH  052%=      5-min Rain = 0
KST3 131817Z 10009KT 30/19 A3015 RMK A01 T02990188  RH  051%=      5-min Rain = 0
KST3 131818Z 12008KT 30/19 A3014 RMK A01 T02980188  RH  052%=      5-min Rain = 0
KST3 131819Z 11008KT 30/19 A3014 RMK A01 T02980187  RH  051%=      5-min Rain = 0
KST3 131820Z 10009KT 30/19 A3014 RMK A01 T02980185  RH  051%=      5-min Rain = 0
KST3 131821Z 10007KT 30/19 A3014 RMK A01 T02980187  RH  051%=      5-min Rain = 0
KST3 131822Z 09007KT 30/19 A3014 RMK A01 T02980189  RH  052%=      5-min Rain = 0
KST3 131823Z 08010KT 30/19 A3014 RMK A01 T02990191  RH  053%=      5-min Rain = 0
KST3 131824Z 07008KT 30/19 A3014 RMK A01 T02990190  RH  052%=      5-min Rain = 0
KST3 131825Z 09007KT 30/19 A3014 RMK A01 T02980191  RH  053%=      5-min Rain = 0
KST3 131826Z 12007KT 30/19 A3014 RMK A01 T02970191  RH  053%=      5-min Rain = 0
KST3 131827Z 12007KT 30/19 A3014 RMK A01 T02960191  RH  053%=      5-min Rain = 0
KST3 131828Z 09007KT 30/19 A3014 RMK A01 T02970191  RH  053%=      5-min Rain = 0
KST3 131829Z 10004G9KT 29/19 A3014 RMK A01 T02940187  RH  053%=      5-min Rain = 0
KST3 131830Z 10006KT 29/19 A3014 RMK A01 T02930190  RH  054%=      5-min Rain = 0
KST3 131831Z 08005KT 29/19 A3014 RMK A01 T02940194  RH  055%=      5-min Rain = 0
KST3 131832Z 06004KT 29/19 A3014 RMK A01 T02940188  RH  053%=      5-min Rain = 0
KST3 131833Z 08007KT 29/19 A3014 RMK A01 T02930189  RH  054%=      5-min Rain = 0
KST3 131834Z 11005KT 29/19 A3014 RMK A01 T02930189  RH  054%=      5-min Rain = 0
KST3 131835Z 11009KT 29/19 A3014 RMK A01 T02940191  RH  054%=      5-min Rain = 0
KST3 131836Z 10007KT 30/19 A3014 RMK A01 T02970188  RH  052%=      5-min Rain = 0
KST3 131837Z 12005KT 30/19 A3014 RMK A01 T02980188  RH  052%=      5-min Rain = 0
KST3 131838Z 11004KT 30/19 A3014 RMK A01 T02990188  RH  051%=      5-min Rain = 0
KST3 131839Z 10010KT 30/19 A3014 RMK A01 T03000189  RH  051%=      5-min Rain = 0
KST3 131840Z 10007KT 30/19 A3014 RMK A01 T02990186  RH  051%=      5-min Rain = 0
KST3 131841Z 10009KT 30/19 A3014 RMK A01 T02970188  RH  052%=      5-min Rain = 0
KST3 131842Z 09009KT 30/19 A3014 RMK A01 T02990190  RH  052%=      5-min Rain = 0
KST3 131843Z 12009KT 30/19 A3014 RMK A01 T03030191  RH  051%=      5-min Rain = 0
KST3 131844Z 14008G14KT 31/19 A3013 RMK A01 T03050188  RH  049%=      5-min Rain = 0
KST3 131845Z 14005KT 31/19 A3013 RMK A01 T03050191  RH  051%=      5-min Rain = 0
KST3 131846Z 16005KT 31/19 A3013 RMK A01 T03060186  RH  049%=      5-min Rain = 0
KST3 131847Z 16006KT 31/19 A3013 RMK A01 T03060192  RH  051%=      5-min Rain = 0
KST3 131848Z 12005KT 31/19 A3013 RMK A01 T03060187  RH  049%=      5-min Rain = 0
KST3 131849Z 12007KT 31/19 A3013 RMK A01 T03050189  RH  050%=      5-min Rain = 0
KST3 131850Z 11011KT 31/19 A3013 RMK A01 T03050188  RH  050%=      5-min Rain = 0
KST3 131851Z 10011KT 31/19 A3013 RMK A01 T03070188  RH  049%=      5-min Rain = 0
KST3 131852Z 11010KT 31/19 A3013 RMK A01 T03060187  RH  049%=      5-min Rain = 0
KST3 131853Z 11007KT 31/19 A3013 RMK A01 T03050186  RH  049%=      5-min Rain = 0
KST3 131854Z 12007KT 30/19 A3013 RMK A01 T03040185  RH  049%=      5-min Rain = 0
KST3 131855Z 10010KT 30/19 A3013 RMK A01 T03040187  RH  050%=      5-min Rain = 0
KST3 131856Z 11010KT 30/19 A3013 RMK A01 T03030187  RH  050%=      5-min Rain = 0
KST3 131857Z 11006KT 30/19 A3013 RMK A01 T03040187  RH  050%=      5-min Rain = 0
KST3 131858Z 09005KT 31/19 A3013 RMK A01 T03050192  RH  051%=      5-min Rain = 0
KST3 131859Z 09007KT 31/19 A3013 RMK A01 T03070188  RH  049%=      5-min Rain = 0
KST3 131900Z 09009KT 31/19 A3013 RMK A01 T03070191  RH  050%=      5-min Rain = 0
KST3 131901Z 10010KT 31/19 A3013 RMK A01 T03060188  RH  049%=      5-min Rain = 0
KST3 131902Z 10011KT 31/19 A3013 RMK A01 T03060188  RH  050%=      5-min Rain = 0
KST3 131903Z 09008KT 31/19 A3013 RMK A01 T03060188  RH  049%=      5-min Rain = 0
KST3 131904Z 09009KT 31/19 A3013 RMK A01 T03070190  RH  050%=      5-min Rain = 0
KST3 131905Z 10009KT 31/19 A3013 RMK A01 T03080186  RH  048%=      5-min Rain = 0
KST3 131906Z 11009KT 31/18 A3013 RMK A01 T03060184  RH  048%=      5-min Rain = 0
KST3 131907Z 09010KT 31/19 A3013 RMK A01 T03060190  RH  050%=      5-min Rain = 0
KST3 131908Z 09008KT 31/19 A3013 RMK A01 T03070188  RH  049%=      5-min Rain = 0
KST3 131909Z 08010KT 31/19 A3013 RMK A01 T03080190  RH  050%=      5-min Rain = 0
KST3 131910Z 08008KT 31/19 A3013 RMK A01 T03090187  RH  048%=      5-min Rain = 0
KST3 131911Z 10006KT 31/19 A3013 RMK A01 T03080189  RH  049%=      5-min Rain = 0
KST3 131912Z 09008KT 31/19 A3013 RMK A01 T03080187  RH  048%=      5-min Rain = 0
KST3 131913Z 08008KT 31/19 A3013 RMK A01 T03080190  RH  050%=      5-min Rain = 0
KST3 131914Z 11009KT 31/19 A3013 RMK A01 T03090187  RH  048%=      5-min Rain = 0
KST3 131915Z 11008KT 31/19 A3013 RMK A01 T03090187  RH  048%=      5-min Rain = 0
KST3 131916Z 10009KT 31/19 A3013 RMK A01 T03070188  RH  049%=      5-min Rain = 0
KST3 131917Z 11007KT 31/19 A3013 RMK A01 T03070186  RH  048%=      5-min Rain = 0
KST3 131918Z 11010KT 31/19 A3013 RMK A01 T03070185  RH  048%=      5-min Rain = 0
KST3 131919Z 10011KT 31/19 A3013 RMK A01 T03100187  RH  048%=      5-min Rain = 0
KST3 131920Z 09011KT 31/19 A3013 RMK A01 T03130185  RH  046%=      5-min Rain = 0
KST3 131921Z 10007KT 31/18 A3013 RMK A01 T03130182  RH  046%=      5-min Rain = 0
KST3 131922Z 10008KT 31/18 A3012 RMK A01 T03110183  RH  046%=      5-min Rain = 0
KST3 131923Z 11007G12KT 31/18 A3012 RMK A01 T03110183  RH  046%=      5-min Rain = 0
KST3 131924Z 13009KT 31/19 A3013 RMK A01 T03130186  RH  047%=      5-min Rain = 0
KST3 131925Z 15008KT 31/19 A3012 RMK A01 T03140186  RH  046%=      5-min Rain = 0
KST3 131926Z 15006KT 32/19 A3013 RMK A01 T03160188  RH  047%=      5-min Rain = 0
KST3 131927Z 13007G12KT 32/19 A3013 RMK A01 T03180188  RH  046%=      5-min Rain = 0
KST3 131928Z 14008KT 32/18 A3012 RMK A01 T03170182  RH  044%=      5-min Rain = 0
KST3 131929Z 15006KT 31/18 A3013 RMK A01 T03140182  RH  045%=      5-min Rain = 0
KST3 131930Z 16005KT 31/18 A3012 RMK A01 T03130182  RH  046%=      5-min Rain = 0
KST3 131931Z 17003KT 31/18 A3012 RMK A01 T03130180  RH  045%=      5-min Rain = 0
KST3 131932Z 13004KT 31/18 A3013 RMK A01 T03120183  RH  046%=      5-min Rain = 0
KST3 131933Z 11004KT 31/18 A3013 RMK A01 T03130184  RH  046%=      5-min Rain = 0
KST3 131934Z 10004KT 32/19 A3013 RMK A01 T03150186  RH  046%=      5-min Rain = 0
KST3 131935Z 10005KT 32/18 A3013 RMK A01 T03150180  RH  045%=      5-min Rain = 0
KST3 131936Z 11007KT 32/18 A3013 RMK A01 T03150183  RH  045%=      5-min Rain = 0
KST3 131937Z 12010KT 31/18 A3013 RMK A01 T03140181  RH  045%=      5-min Rain = 0
KST3 131938Z 13008KT 31/18 A3012 RMK A01 T03130176  RH  044%=      5-min Rain = 0
KST3 131939Z 12005KT 31/18 A3012 RMK A01 T03120176  RH  044%=      5-min Rain = 0
KST3 131940Z 11010KT 31/18 A3012 RMK A01 T03120178  RH  045%=      5-min Rain = 0
KST3 131941Z 10011KT 31/18 A3013 RMK A01 T03140177  RH  044%=      5-min Rain = 0
KST3 131942Z 10007KT 32/18 A3012 RMK A01 T03150177  RH  044%=      5-min Rain = 0
KST3 131943Z 12009KT 32/18 A3012 RMK A01 T03150175  RH  043%=      5-min Rain = 0
KST3 131944Z 13008KT 31/17 A3012 RMK A01 T03140174  RH  043%=      5-min Rain = 0
KST3 131945Z 14007KT 31/18 A3012 RMK A01 T03130175  RH  044%=      5-min Rain = 0
KST3 131946Z 16003KT 31/18 A3012 RMK A01 T03130177  RH  044%=      5-min Rain = 0
KST3 131947Z 15002KT 31/17 A3012 RMK A01 T03140173  RH  043%=      5-min Rain = 0
KST3 131948Z 13006KT 32/17 A3012 RMK A01 T03150174  RH  043%=      5-min Rain = 0
KST3 131949Z 13005KT 31/18 A3012 RMK A01 T03140176  RH  044%=      5-min Rain = 0
KST3 131950Z 13008KT 32/18 A3012 RMK A01 T03160178  RH  044%=      5-min Rain = 0
KST3 131951Z 12007KT 32/18 A3012 RMK A01 T03170179  RH  044%=      5-min Rain = 0
KST3 131952Z 14008KT 32/18 A3012 RMK A01 T03200182  RH  044%=      5-min Rain = 0
KST3 131953Z 15008KT 32/18 A3012 RMK A01 T03220179  RH  043%=      5-min Rain = 0
KST3 131954Z 15009KT 32/18 A3012 RMK A01 T03220182  RH  043%=      5-min Rain = 0
KST3 131955Z 15008G13KT 32/18 A3012 RMK A01 T03220181  RH  043%=      5-min Rain = 0
KST3 131956Z 13013KT 32/18 A3012 RMK A01 T03220177  RH  042%=      5-min Rain = 0
KST3 131957Z 13011KT 32/17 A3012 RMK A01 T03200174  RH  042%=      5-min Rain = 0
KST3 131958Z 11014KT 32/18 A3012 RMK A01 T03180176  RH  043%=      5-min Rain = 0
KST3 131959Z 10010KT 32/17 A3012 RMK A01 T03180173  RH  042%=      5-min Rain = 0
KST3 132000Z 12009G14KT 32/17 A3011 RMK A01 T03160173  RH  043%=      5-min Rain = 0
KST3 132001Z 15009KT 32/18 A3012 RMK A01 T03150178  RH  044%=      5-min Rain = 0
KST3 132002Z 15009KT 32/17 A3012 RMK A01 T03170173  RH  042%=      5-min Rain = 0
KST3 132003Z 13010KT 32/18 A3012 RMK A01 T03170175  RH  043%=      5-min Rain = 0
KST3 132004Z 13010KT 32/17 A3012 RMK A01 T03170174  RH  042%=      5-min Rain = 0
KST3 132005Z 13008KT 32/17 A3012 RMK A01 T03170171  RH  041%=      5-min Rain = 0
KST3 132006Z 12008KT 32/17 A3012 RMK A01 T03160171  RH  042%=      5-min Rain = 0
KST3 132007Z 11007KT 32/17 A3012 RMK A01 T03150171  RH  042%=      5-min Rain = 0
KST3 132008Z 12007KT 32/17 A3011 RMK A01 T03150171  RH  042%=      5-min Rain = 0
KST3 132009Z 13005KT 32/17 A3011 RMK A01 T03160174  RH  043%=      5-min Rain = 0
KST3 132010Z 13007KT 32/17 A3011 RMK A01 T03170173  RH  042%=      5-min Rain = 0
KST3 132011Z 13007KT 32/18 A3011 RMK A01 T03180175  RH  043%=      5-min Rain = 0
KST3 132012Z 11010G15KT 32/18 A3011 RMK A01 T03190176  RH  043%=      5-min Rain = 0
KST3 132013Z 11012KT 32/18 A3011 RMK A01 T03210175  RH  042%=      5-min Rain = 0
KST3 132014Z 11009G14KT 32/17 A3011 RMK A01 T03200170  RH  041%=      5-min Rain = 0
KST3 132015Z 14007KT 32/17 A3011 RMK A01 T03170172  RH  042%=      5-min Rain = 0
KST3 132016Z 14007KT 32/17 A3011 RMK A01 T03160171  RH  042%=      5-min Rain = 0
KST3 132017Z 13007KT 32/17 A3011 RMK A01 T03170172  RH  042%=      5-min Rain = 0
KST3 132018Z 15008KT 32/17 A3011 RMK A01 T03170173  RH  042%=      5-min Rain = 0
KST3 132019Z 15008KT 32/17 A3011 RMK A01 T03180174  RH  042%=      5-min Rain = 0
KST3 132020Z 14008KT 32/17 A3011 RMK A01 T03190173  RH  042%=      5-min Rain = 0
KST3 132021Z 13010KT 32/17 A3011 RMK A01 T03190172  RH  041%=      5-min Rain = 0
KST3 132022Z 12008KT 32/17 A3011 RMK A01 T03170170  RH  041%=      5-min Rain = 0
KST3 132023Z 14008KT 32/17 A3011 RMK A01 T03170172  RH  042%=      5-min Rain = 0
KST3 132024Z 15006KT 32/17 A3011 RMK A01 T03170173  RH  042%=      5-min Rain = 0
KST3 132025Z 13008G13KT 32/18 A3011 RMK A01 T03190179  RH  043%=      5-min Rain = 0
KST3 132026Z 11014KT 32/17 A3011 RMK A01 T03230174  RH  041%=      5-min Rain = 0
KST3 132027Z 12012KT 32/17 A3011 RMK A01 T03210170  RH  040%=      5-min Rain = 0
KST3 132028Z 08007KT 32/17 A3011 RMK A01 T03180171  RH  041%=      5-min Rain = 0
KST3 132029Z 10008KT 32/17 A3011 RMK A01 T03170171  RH  042%=      5-min Rain = 0
KST3 132030Z 12009KT 32/17 A3011 RMK A01 T03170172  RH  042%=      5-min Rain = 0
KST3 132031Z 13009KT 32/17 A3011 RMK A01 T03180171  RH  041%=      5-min Rain = 0
KST3 132032Z 13010KT 32/17 A3011 RMK A01 T03190170  RH  041%=      5-min Rain = 0
KST3 132033Z 12009KT 32/17 A3011 RMK A01 T03190167  RH  040%=      5-min Rain = 0
KST3 132034Z 11007KT 32/17 A3011 RMK A01 T03180169  RH  041%=      5-min Rain = 0
KST3 132035Z 10008KT 32/17 A3011 RMK A01 T03180171  RH  041%=      5-min Rain = 0
KST3 132036Z 11008KT 32/17 A3011 RMK A01 T03200172  RH  041%=      5-min Rain = 0
KST3 132037Z 12009KT 32/17 A3011 RMK A01 T03220170  RH  040%=      5-min Rain = 0
KST3 132038Z 12013KT 32/17 A301 RMK A01 T03210169  RH  040%=      5-min Rain = 0
KST3 132039Z 13013KT 32/17 A301 RMK A01 T03200169  RH  040%=      5-min Rain = 0
KST3 132040Z 14010KT 32/17 A301 RMK A01 T03190170  RH  041%=      5-min Rain = 0
KST3 132041Z 13009KT 32/17 A301 RMK A01 T03180170  RH  041%=      5-min Rain = 0
KST3 132042Z 12007KT 32/17 A301 RMK A01 T03200172  RH  041%=      5-min Rain = 0
KST3 132043Z 11006KT 32/17 A301 RMK A01 T03200170  RH  041%=      5-min Rain = 0
KST3 132044Z 13005KT 32/17 A301 RMK A01 T03190168  RH  040%=      5-min Rain = 0
KST3 132045Z 15008KT 32/17 A301 RMK A01 T03180170  RH  041%=      5-min Rain = 0
KST3 132046Z 15011KT 32/17 A301 RMK A01 T03190172  RH  042%=      5-min Rain = 0
KST3 132047Z 15008KT 32/17 A301 RMK A01 T03190172  RH  042%=      5-min Rain = 0
KST3 132048Z 16007KT 32/17 A301 RMK A01 T03200173  RH  041%=      5-min Rain = 0
KST3 132049Z 16008KT 32/17 A301 RMK A01 T03210171  RH  041%=      5-min Rain = 0
KST3 132050Z 16006KT 32/17 A301 RMK A01 T03210170  RH  041%=      5-min Rain = 0
KST3 132051Z 13005KT 32/18 A301 RMK A01 T03210175  RH  042%=      5-min Rain = 0
KST3 132052Z 12007KT 32/18 A301 RMK A01 T03240177  RH  042%=      5-min Rain = 0
KST3 132053Z 12007KT 33/17 A301 RMK A01 T03260171  RH  040%=      5-min Rain = 0
KST3 132054Z 12009KT 33/17 A301 RMK A01 T03250171  RH  040%=      5-min Rain = 0
KST3 132055Z 12011KT 33/17 A301 RMK A01 T03250170  RH  040%=      5-min Rain = 0
KST3 132056Z 12010KT 32/17 A301 RMK A01 T03240167  RH  039%=      5-min Rain = 0
KST3 132057Z 12010KT 32/17 A301 RMK A01 T03210165  RH  039%=      5-min Rain = 0
KST3 132058Z 13009KT 32/17 A301 RMK A01 T03200167  RH  040%=      5-min Rain = 0
KST3 132059Z 14008KT 32/17 A301 RMK A01 T03190166  RH  040%=      5-min Rain = 0
KST3 132100Z 09012KT 32/17 A301 RMK A01 T03190171  RH  041%=      5-min Rain = 0
KST3 132101Z 11011KT 32/17 A301 RMK A01 T03220169  RH  040%=      5-min Rain = 0
KST3 132102Z 13012KT 32/17 A301 RMK A01 T03220169  RH  040%=      5-min Rain = 0
KST3 132103Z 11012KT 32/17 A301 RMK A01 T03220168  RH  040%=      5-min Rain = 0
KST3 132104Z 12010KT 32/17 A301 RMK A01 T03220168  RH  040%=      5-min Rain = 0
KST3 132105Z 11010KT 32/17 A301 RMK A01 T03210168  RH  040%=      5-min Rain = 0
KST3 132106Z 10011KT 32/17 A301 RMK A01 T03200168  RH  040%=      5-min Rain = 0
KST3 132107Z 10007KT 32/17 A3009 RMK A01 T03210168  RH  040%=      5-min Rain = 0
KST3 132108Z 09009KT 32/17 A3009 RMK A01 T03210171  RH  041%=      5-min Rain = 0
KST3 132109Z 07006KT 32/17 A3009 RMK A01 T03220169  RH  040%=      5-min Rain = 0
KST3 132110Z 07003KT 32/17 A3009 RMK A01 T03210174  RH  041%=      5-min Rain = 0
KST3 132111Z 14005G10KT 32/18 A3009 RMK A01 T03230176  RH  041%=      5-min Rain = 0
KST3 132112Z 14010KT 33/17 A3009 RMK A01 T03250171  RH  040%=      5-min Rain = 0
KST3 132113Z 14009KT 33/17 A3009 RMK A01 T03260169  RH  039%=      5-min Rain = 0
KST3 132114Z 15010KT 33/17 A3009 RMK A01 T03250171  RH  040%=      5-min Rain = 0
KST3 132115Z 13010KT 33/17 A3009 RMK A01 T03250170  RH  040%=      5-min Rain = 0
KST3 132116Z 12009KT 32/17 A3009 RMK A01 T03240167  RH  039%=      5-min Rain = 0
KST3 132117Z 12008G13KT 32/17 A3009 RMK A01 T03230169  RH  040%=      5-min Rain = 0
KST3 132118Z 11007KT 32/17 A3009 RMK A01 T03220167  RH  039%=      5-min Rain = 0
KST3 132119Z 12005KT 32/17 A3009 RMK A01 T03210169  RH  040%=      5-min Rain = 0
KST3 132120Z 13005KT 32/17 A3009 RMK A01 T03220168  RH  040%=      5-min Rain = 0
KST3 132121Z 14005KT 32/17 A3009 RMK A01 T03220171  RH  040%=      5-min Rain = 0
KST3 132122Z 16006KT 32/17 A3009 RMK A01 T03240171  RH  040%=      5-min Rain = 0
KST3 132123Z 13006KT 33/17 A3009 RMK A01 T03250172  RH  040%=      5-min Rain = 0
KST3 132124Z 14009G14KT 33/17 A3009 RMK A01 T03260169  RH  039%=      5-min Rain = 0
KST3 132125Z 12011KT 33/17 A3009 RMK A01 T03270166  RH  038%=      5-min Rain = 0
KST3 132126Z 13011KT 33/16 A3009 RMK A01 T03270162  RH  037%=      5-min Rain = 0
KST3 132127Z 13010KT 33/16 A3009 RMK A01 T03260163  RH  038%=      5-min Rain = 0
KST3 132128Z 14008KT 33/16 A3009 RMK A01 T03250160  RH  037%=      5-min Rain = 0
KST3 132129Z 15006KT 32/16 A3009 RMK A01 T03230159  RH  037%=      5-min Rain = 0
KST3 132130Z 13006KT 32/16 A3009 RMK A01 T03220163  RH  038%=      5-min Rain = 0
KST3 132131Z 11005KT 32/16 A3009 RMK A01 T03230163  RH  038%=      5-min Rain = 0
KST3 132132Z 12008KT 32/17 A3009 RMK A01 T03240165  RH  038%=      5-min Rain = 0
KST3 132133Z 16011KT 33/17 A3008 RMK A01 T03250167  RH  039%=      5-min Rain = 0
KST3 132134Z 15009KT 33/17 A3009 RMK A01 T03260169  RH  039%=      5-min Rain = 0
KST3 132135Z 15010KT 33/17 A3009 RMK A01 T03270168  RH  038%=      5-min Rain = 0
KST3 132136Z 13010KT 33/17 A3009 RMK A01 T03270165  RH  038%=      5-min Rain = 0
KST3 132137Z 16011KT 33/17 A3008 RMK A01 T03260167  RH  039%=      5-min Rain = 0
KST3 132138Z 17011KT 33/16 A3008 RMK A01 T03260164  RH  038%=      5-min Rain = 0
KST3 132139Z 16012KT 33/17 A3008 RMK A01 T03260166  RH  038%=      5-min Rain = 0
KST3 132140Z 15011KT 33/16 A3008 RMK A01 T03260164  RH  038%=      5-min Rain = 0
KST3 132141Z 14009KT 33/16 A3008 RMK A01 T03260163  RH  038%=      5-min Rain = 0
KST3 132142Z 14011KT 33/17 A3008 RMK A01 T03250166  RH  039%=      5-min Rain = 0
KST3 132143Z 12010KT 33/17 A3008 RMK A01 T03270166  RH  038%=      5-min Rain = 0
KST3 132144Z 09010KT 33/16 A3008 RMK A01 T03290164  RH  037%=      5-min Rain = 0
KST3 132145Z 09009KT 33/16 A3008 RMK A01 T03290164  RH  037%=      5-min Rain = 0
KST3 132146Z 08009KT 33/16 A3008 RMK A01 T03290163  RH  037%=      5-min Rain = 0
KST3 132147Z 07008KT 33/16 A3008 RMK A01 T03280163  RH  037%=      5-min Rain = 0
KST3 132148Z 10009KT 33/16 A3008 RMK A01 T03270163  RH  037%=      5-min Rain = 0
KST3 132149Z 14008KT 33/16 A3008 RMK A01 T03280164  RH  038%=      5-min Rain = 0
KST3 132150Z 14008KT 33/16 A3008 RMK A01 T03280161  RH  037%=      5-min Rain = 0
KST3 132151Z 13010G15KT 33/16 A3008 RMK A01 T03270163  RH  037%=      5-min Rain = 0
KST3 132152Z 11014KT 33/16 A3008 RMK A01 T03260162  RH  037%=      5-min Rain = 0
KST3 132153Z 11013KT 33/16 A3008 RMK A01 T03260162  RH  037%=      5-min Rain = 0
KST3 132154Z 11009KT 33/16 A3008 RMK A01 T03260162  RH  037%=      5-min Rain = 0
KST3 132155Z 09007KT 33/16 A3008 RMK A01 T03250161  RH  037%=      5-min Rain = 0
KST3 132156Z 11006KT 33/17 A3008 RMK A01 T03260167  RH  039%=      5-min Rain = 0
KST3 132157Z 15007KT 33/17 A3008 RMK A01 T03290168  RH  038%=      5-min Rain = 0
KST3 132158Z 15007KT 33/17 A3008 RMK A01 T03300165  RH  037%=      5-min Rain = 0
KST3 132159Z 14007KT 33/17 A3008 RMK A01 T03300166  RH  037%=      5-min Rain = 0
KST3 132200Z 15010KT 33/17 A3008 RMK A01 T03310165  RH  037%=      5-min Rain = 0
KST3 132201Z 15009KT 33/17 A3008 RMK A01 T03300165  RH  037%=      5-min Rain = 0
KST3 132202Z 14008KT 33/16 A3008 RMK A01 T03280162  RH  037%=      5-min Rain = 0
KST3 132203Z 14007KT 33/17 A3008 RMK A01 T03280165  RH  038%=      5-min Rain = 0
KST3 132204Z 15010KT 33/17 A3008 RMK A01 T03290166  RH  038%=      5-min Rain = 0
KST3 132205Z 13011KT 33/16 A3008 RMK A01 T03290164  RH  037%=      5-min Rain = 0
KST3 132206Z 13013KT 33/16 A3008 RMK A01 T03290162  RH  037%=      5-min Rain = 0
KST3 132207Z 13010KT 33/16 A3008 RMK A01 T03270160  RH  037%=      5-min Rain = 0
KST3 132208Z 14007KT 33/16 A3008 RMK A01 T03250162  RH  038%=      5-min Rain = 0
KST3 132209Z 13008KT 33/16 A3008 RMK A01 T03250163  RH  038%=      5-min Rain = 0
KST3 132210Z 14006KT 33/16 A3007 RMK A01 T03260162  RH  038%=      5-min Rain = 0
KST3 132211Z 15008KT 33/16 A3007 RMK A01 T03260164  RH  038%=      5-min Rain = 0
KST3 132212Z 15011KT 33/17 A3007 RMK A01 T03270165  RH  038%=      5-min Rain = 0
KST3 132213Z 14010KT 33/17 A3007 RMK A01 T03280167  RH  038%=      5-min Rain = 0
KST3 132214Z 13009KT 33/17 A3007 RMK A01 T03290166  RH  038%=      5-min Rain = 0
KST3 132215Z 14009KT 33/17 A3007 RMK A01 T03290166  RH  038%=      5-min Rain = 0
KST3 132216Z 12011KT 33/17 A3007 RMK A01 T03290167  RH  038%=      5-min Rain = 0
KST3 132217Z 13012KT 33/17 A3007 RMK A01 T03290166  RH  038%=      5-min Rain = 0
KST3 132218Z 14010KT 33/17 A3007 RMK A01 T03280167  RH  038%=      5-min Rain = 0
KST3 132219Z 14012G18KT 33/17 A3007 RMK A01 T03270167  RH  038%=      5-min Rain = 0
KST3 132220Z 13013KT 33/16 A3007 RMK A01 T03270163  RH  038%=      5-min Rain = 0
KST3 132221Z 13010KT 33/16 A3007 RMK A01 T03250162  RH  038%=      5-min Rain = 0
KST3 132222Z 12011KT 32/17 A3008 RMK A01 T03240166  RH  039%=      5-min Rain = 0
KST3 132223Z 13013KT 33/17 A3008 RMK A01 T03260165  RH  038%=      5-min Rain = 0
KST3 132224Z 12010KT 33/16 A3008 RMK A01 T03250163  RH  038%=      5-min Rain = 0
KST3 132225Z 13010KT 32/17 A3008 RMK A01 T03240166  RH  039%=      5-min Rain = 0
KST3 132226Z 14009KT 32/16 A3008 RMK A01 T03240164  RH  038%=      5-min Rain = 0
KST3 132227Z 15007KT 32/17 A3008 RMK A01 T03240165  RH  038%=      5-min Rain = 0
KST3 132228Z 15006KT 32/16 A3008 RMK A01 T03240163  RH  038%=      5-min Rain = 0
KST3 132229Z 13007KT 33/17 A3008 RMK A01 T03250168  RH  039%=      5-min Rain = 0
KST3 132230Z 13010KT 33/16 A3008 RMK A01 T03260164  RH  038%=      5-min Rain = 0
KST3 132231Z 12009KT 33/17 A3008 RMK A01 T03250165  RH  038%=      5-min Rain = 0
KST3 132232Z 14009KT 32/17 A3008 RMK A01 T03240166  RH  039%=      5-min Rain = 0
KST3 132233Z 13007KT 32/16 A3008 RMK A01 T03240164  RH  038%=      5-min Rain = 0
KST3 132234Z 14007G12KT 32/17 A3008 RMK A01 T03230168  RH  039%=      5-min Rain = 0
KST3 132235Z 12010KT 33/17 A3008 RMK A01 T03250171  RH  040%=      5-min Rain = 0
KST3 132236Z 11009KT 33/17 A3008 RMK A01 T03270168  RH  039%=      5-min Rain = 0
KST3 132237Z 10007KT 33/17 A3008 RMK A01 T03260165  RH  038%=      5-min Rain = 0
KST3 132238Z 12007KT 33/17 A3008 RMK A01 T03250167  RH  039%=      5-min Rain = 0
KST3 132239Z 13010KT 33/17 A3008 RMK A01 T03250166  RH  039%=      5-min Rain = 0
KST3 132240Z 13010KT 33/17 A3008 RMK A01 T03250165  RH  038%=      5-min Rain = 0
KST3 132241Z 12009KT 32/16 A3008 RMK A01 T03240164  RH  038%=      5-min Rain = 0
KST3 132242Z 11010KT 32/16 A3008 RMK A01 T03240162  RH  038%=      5-min Rain = 0
KST3 132243Z 12009KT 32/16 A3008 RMK A01 T03240164  RH  038%=      5-min Rain = 0
KST3 132244Z 14010KT 32/17 A3008 RMK A01 T03240169  RH  040%=      5-min Rain = 0
KST3 132245Z 12008KT 32/17 A3008 RMK A01 T03240172  RH  040%=      5-min Rain = 0
KST3 132246Z 11010KT 33/17 A3008 RMK A01 T03250168  RH  039%=      5-min Rain = 0
KST3 132247Z 12008KT 33/17 A3008 RMK A01 T03250167  RH  039%=      5-min Rain = 0
KST3 132248Z 11010KT 33/17 A3008 RMK A01 T03250168  RH  039%=      5-min Rain = 0
KST3 132249Z 14008KT 33/17 A3008 RMK A01 T03260170  RH  039%=      5-min Rain = 0
KST3 132250Z 14008KT 33/17 A3008 RMK A01 T03270168  RH  039%=      5-min Rain = 0
KST3 132251Z 15010KT 33/17 A3008 RMK A01 T03260168  RH  039%=      5-min Rain = 0
KST3 132252Z 16008KT 33/17 A3008 RMK A01 T03250169  RH  039%=      5-min Rain = 0
KST3 132253Z 15008KT 33/17 A3008 RMK A01 T03250168  RH  039%=      5-min Rain = 0
KST3 132254Z 13008KT 33/17 A3008 RMK A01 T03250168  RH  039%=      5-min Rain = 0
KST3 132255Z 11009KT 33/17 A3008 RMK A01 T03250172  RH  040%=      5-min Rain = 0
KST3 132256Z 11009KT 33/17 A3008 RMK A01 T03260169  RH  039%=      5-min Rain = 0
KST3 132257Z 11007KT 33/17 A3008 RMK A01 T03260169  RH  039%=      5-min Rain = 0
KST3 132258Z 13007KT 33/17 A3008 RMK A01 T03250171  RH  040%=      5-min Rain = 0
KST3 132259Z 14009KT 32/17 A3008 RMK A01 T03240173  RH  040%=      5-min Rain = 0
KST3 132300Z 14009KT 32/17 A3008 RMK A01 T03240174  RH  041%=      5-min Rain = 0
KST3 132301Z 15010KT 32/17 A3008 RMK A01 T03230173  RH  041%=      5-min Rain = 0
KST3 132302Z 15009KT 32/17 A3008 RMK A01 T03210171  RH  041%=      5-min Rain = 0
KST3 132303Z 15008KT 32/17 A3008 RMK A01 T03210174  RH  042%=      5-min Rain = 0
KST3 132304Z 15009KT 32/17 A3008 RMK A01 T03220173  RH  041%=      5-min Rain = 0
KST3 132305Z 14008KT 32/17 A3008 RMK A01 T03220168  RH  040%=      5-min Rain = 0
KST3 132306Z 12006KT 32/17 A3008 RMK A01 T03210168  RH  040%=      5-min Rain = 0
KST3 132307Z 12010KT 32/17 A3008 RMK A01 T03210171  RH  041%=      5-min Rain = 0
KST3 132308Z 11011KT 32/17 A3008 RMK A01 T03210170  RH  040%=      5-min Rain = 0
KST3 132309Z 09010KT 32/17 A3008 RMK A01 T03210169  RH  040%=      5-min Rain = 0
KST3 132310Z 10008KT 32/17 A3008 RMK A01 T03220169  RH  040%=      5-min Rain = 0
KST3 132311Z 11008KT 32/17 A3008 RMK A01 T03220170  RH  040%=      5-min Rain = 0
KST3 132312Z 12010KT 32/17 A3009 RMK A01 T03220173  RH  041%=      5-min Rain = 0
KST3 132313Z 11010KT 32/17 A3009 RMK A01 T03230170  RH  040%=      5-min Rain = 0
KST3 132314Z 12011KT 32/17 A3009 RMK A01 T03230171  RH  040%=      5-min Rain = 0
KST3 132315Z 12010KT 32/17 A3009 RMK A01 T03220169  RH  040%=      5-min Rain = 0
KST3 132316Z 11007KT 32/17 A3009 RMK A01 T03210170  RH  040%=      5-min Rain = 0
KST3 132317Z 11008KT 32/17 A3009 RMK A01 T03200172  RH  041%=      5-min Rain = 0
KST3 132318Z 13009KT 32/17 A3009 RMK A01 T03210171  RH  041%=      5-min Rain = 0
KST3 132319Z 13010KT 32/17 A3009 RMK A01 T03210171  RH  041%=      5-min Rain = 0
KST3 132320Z 13007KT 32/17 A3009 RMK A01 T03200169  RH  040%=      5-min Rain = 0
KST3 132321Z 16005KT 32/17 A3009 RMK A01 T03200173  RH  042%=      5-min Rain = 0
KST3 132322Z 17007KT 32/17 A3009 RMK A01 T03210174  RH  042%=      5-min Rain = 0
KST3 132323Z 15009KT 32/17 A3009 RMK A01 T03210172  RH  041%=      5-min Rain = 0
KST3 132324Z 14011KT 32/18 A3009 RMK A01 T03220175  RH  041%=      5-min Rain = 0
KST3 132325Z 13009KT 32/17 A3009 RMK A01 T03210174  RH  042%=      5-min Rain = 0
KST3 132326Z 14010KT 32/18 A3009 RMK A01 T03210175  RH  042%=      5-min Rain = 0
KST3 132327Z 14011KT 32/17 A3009 RMK A01 T03200173  RH  041%=      5-min Rain = 0
KST3 132328Z 14009KT 32/18 A3009 RMK A01 T03190175  RH  042%=      5-min Rain = 0
KST3 132329Z 13008KT 32/17 A3009 RMK A01 T03180172  RH  042%=      5-min Rain = 0
KST3 132330Z 12009KT 32/17 A3009 RMK A01 T03180172  RH  042%=      5-min Rain = 0
KST3 132331Z 13008KT 32/17 A3009 RMK A01 T03180172  RH  042%=      5-min Rain = 0
KST3 132332Z 15009KT 32/17 A3009 RMK A01 T03180172  RH  042%=      5-min Rain = 0
KST3 132333Z 15008KT 32/17 A3009 RMK A01 T03180174  RH  042%=      5-min Rain = 0
KST3 132334Z 16009KT 32/17 A3009 RMK A01 T03180173  RH  042%=      5-min Rain = 0
KST3 132335Z 16008KT 32/17 A3009 RMK A01 T03180172  RH  041%=      5-min Rain = 0
KST3 132336Z 14010KT 32/17 A3009 RMK A01 T03180173  RH  042%=      5-min Rain = 0
KST3 132337Z 10007KT 32/17 A3009 RMK A01 T03190174  RH  042%=      5-min Rain = 0
KST3 132338Z 10008KT 32/18 A3009 RMK A01 T03200175  RH  042%=      5-min Rain = 0
KST3 132339Z 12008KT 32/17 A3009 RMK A01 T03210173  RH  041%=      5-min Rain = 0
KST3 132340Z 12008KT 32/18 A3009 RMK A01 T03210175  RH  042%=      5-min Rain = 0
KST3 132341Z 11007KT 32/17 A3009 RMK A01 T03210169  RH  040%=      5-min Rain = 0
KST3 132342Z 12005KT 32/17 A3009 RMK A01 T03190168  RH  041%=      5-min Rain = 0
KST3 132343Z 12006KT 32/17 A3009 RMK A01 T03180174  RH  042%=      5-min Rain = 0
KST3 132344Z 12008KT 32/17 A3009 RMK A01 T03190173  RH  042%=      5-min Rain = 0
KST3 132345Z 13007KT 32/17 A3009 RMK A01 T03190171  RH  041%=      5-min Rain = 0
KST3 132346Z 13008KT 32/18 A3009 RMK A01 T03180175  RH  042%=      5-min Rain = 0
KST3 132347Z 13007KT 32/17 A3009 RMK A01 T03180171  RH  041%=      5-min Rain = 0
KST3 132348Z 12007KT 32/17 A3009 RMK A01 T03180172  RH  042%=      5-min Rain = 0
KST3 132349Z 11005KT 32/17 A3009 RMK A01 T03180173  RH  042%=      5-min Rain = 0
KST3 132350Z 12007KT 32/17 A3009 RMK A01 T03190174  RH  042%=      5-min Rain = 0
KST3 132351Z 12008KT 32/17 A3009 RMK A01 T03200170  RH  041%=      5-min Rain = 0
KST3 132352Z 12007KT 32/17 A3009 RMK A01 T03190171  RH  041%=      5-min Rain = 0
KST3 132353Z 11006KT 32/17 A3009 RMK A01 T03180170  RH  041%=      5-min Rain = 0
KST3 132354Z 11007KT 32/17 A3009 RMK A01 T03180172  RH  042%=      5-min Rain = 0
KST3 132355Z 11012KT 32/17 A3009 RMK A01 T03180173  RH  042%=      5-min Rain = 0
KST3 132356Z 11010KT 32/17 A3009 RMK A01 T03170172  RH  042%=      5-min Rain = 0
KST3 132357Z 12009KT 32/18 A3009 RMK A01 T03160176  RH  043%=      5-min Rain = 0
KST3 132358Z 11008KT 32/18 A3009 RMK A01 T03160176  RH  043%=      5-min Rain = 0
KST3 132359Z 12006KT 32/18 A3009 RMK A01 T03170176  RH  043%=      5-min Rain = 0
KST3 140000Z 14007KT 32/18 A3009 RMK A01 T03170178  RH  044%=      5-min Rain = 0
KST3 140001Z 13009KT 32/18 A3009 RMK A01 T03170175  RH  043%=      5-min Rain = 0
KST3 140002Z 12009KT 32/18 A3009 RMK A01 T03160175  RH  043%=      5-min Rain = 0
KST3 140003Z 14007KT 32/18 A3009 RMK A01 T03150175  RH  043%=      5-min Rain = 0
KST3 140004Z 13008KT 32/18 A3009 RMK A01 T03150175  RH  043%=      5-min Rain = 0
KST3 140005Z 11009KT 32/17 A3009 RMK A01 T03150174  RH  043%=      5-min Rain = 0
KST3 140006Z 11009KT 32/17 A3009 RMK A01 T03150172  RH  042%=      5-min Rain = 0
KST3 140007Z 12008KT 32/18 A3009 RMK A01 T03150175  RH  043%=      5-min Rain = 0
KST3 140008Z 12009KT 32/17 A3009 RMK A01 T03150174  RH  043%=      5-min Rain = 0
KST3 140009Z 11009KT 32/18 A3008 RMK A01 T03150176  RH  044%=      5-min Rain = 0
KST3 140010Z 11010KT 31/18 A3008 RMK A01 T03140176  RH  044%=      5-min Rain = 0
KST3 140011Z 11010KT 31/17 A3008 RMK A01 T03140174  RH  043%=      5-min Rain = 0
KST3 140012Z 12009KT 31/18 A3008 RMK A01 T03140176  RH  044%=      5-min Rain = 0
KST3 140013Z 12009KT 31/18 A3008 RMK A01 T03140175  RH  044%=      5-min Rain = 0
KST3 140014Z 12007KT 31/18 A3008 RMK A01 T03130176  RH  044%=      5-min Rain = 0
KST3 140015Z 12006KT 31/18 A3008 RMK A01 T03130175  RH  044%=      5-min Rain = 0
KST3 140016Z 12005KT 31/17 A3008 RMK A01 T03120174  RH  044%=      5-min Rain = 0
KST3 140017Z 13006KT 31/18 A3008 RMK A01 T03110176  RH  044%=      5-min Rain = 0
KST3 140018Z 11008KT 31/18 A3008 RMK A01 T03110178  RH  045%=      5-min Rain = 0
KST3 140019Z 12009KT 31/18 A3008 RMK A01 T03110177  RH  045%=      5-min Rain = 0
KST3 140020Z 11008KT 31/18 A3008 RMK A01 T03100178  RH  045%=      5-min Rain = 0
KST3 140021Z 11008KT 31/18 A3008 RMK A01 T03090177  RH  045%=      5-min Rain = 0
KST3 140022Z 12008KT 31/18 A3009 RMK A01 T03070175  RH  045%=      5-min Rain = 0
KST3 140023Z 13006KT 31/18 A3009 RMK A01 T03060176  RH  046%=      5-min Rain = 0
KST3 140024Z 13007KT 31/18 A3009 RMK A01 T03050177  RH  046%=      5-min Rain = 0
KST3 140025Z 13006KT 31/18 A3009 RMK A01 T03050176  RH  046%=      5-min Rain = 0
KST3 140026Z 14005KT 30/18 A3009 RMK A01 T03040178  RH  047%=      5-min Rain = 0
KST3 140027Z 12006KT 30/18 A3009 RMK A01 T03040177  RH  047%=      5-min Rain = 0
KST3 140028Z 12007KT 30/18 A3009 RMK A01 T03030177  RH  047%=      5-min Rain = 0
KST3 140029Z 13008KT 30/18 A3009 RMK A01 T03030178  RH  047%=      5-min Rain = 0
KST3 140030Z 13008KT 30/18 A3009 RMK A01 T03020177  RH  047%=      5-min Rain = 0
KST3 140031Z 13008KT 30/18 A3009 RMK A01 T03020178  RH  047%=      5-min Rain = 0
KST3 140032Z 13006KT 30/18 A3009 RMK A01 T03020178  RH  047%=      5-min Rain = 0
KST3 140033Z 13005KT 30/18 A3009 RMK A01 T03020179  RH  048%=      5-min Rain = 0
KST3 140034Z 13005KT 30/18 A301 RMK A01 T03020179  RH  048%=      5-min Rain = 0
KST3 140035Z 13006KT 30/18 A301 RMK A01 T03020177  RH  047%=      5-min Rain = 0
KST3 140036Z 13005KT 30/18 A301 RMK A01 T03020177  RH  047%=      5-min Rain = 0
KST3 140037Z 14005KT 30/18 A301 RMK A01 T03030179  RH  048%=      5-min Rain = 0
KST3 140038Z 12005KT 30/18 A301 RMK A01 T03030180  RH  048%=      5-min Rain = 0
KST3 140039Z 13005KT 30/18 A301 RMK A01 T03020180  RH  048%=      5-min Rain = 0
KST3 140040Z 12007KT 30/18 A301 RMK A01 T03020180  RH  048%=      5-min Rain = 0
KST3 140041Z 13007KT 30/18 A301 RMK A01 T03020180  RH  048%=      5-min Rain = 0
KST3 140042Z 13007KT 30/18 A301 RMK A01 T03010179  RH  048%=      5-min Rain = 0
KST3 140043Z 13007KT 30/18 A301 RMK A01 T03010178  RH  048%=      5-min Rain = 0
KST3 140044Z 12008KT 30/18 A301 RMK A01 T03010179  RH  048%=      5-min Rain = 0
KST3 140045Z 12007KT 30/18 A301 RMK A01 T03000179  RH  048%=      5-min Rain = 0
KST3 140046Z 12006KT 30/18 A301 RMK A01 T03000180  RH  049%=      5-min Rain = 0
KST3 140047Z 12005KT 30/18 A301 RMK A01 T02990181  RH  049%=      5-min Rain = 0
KST3 140048Z 12006KT 30/18 A301 RMK A01 T02980180  RH  049%=      5-min Rain = 0
KST3 140049Z 13005KT 30/18 A301 RMK A01 T02980180  RH  049%=      5-min Rain = 0
KST3 140050Z 13006KT 30/18 A301 RMK A01 T02970180  RH  049%=      5-min Rain = 0
KST3 140051Z 13007KT 30/18 A301 RMK A01 T02970180  RH  049%=      5-min Rain = 0
KST3 140052Z 13006KT 30/18 A301 RMK A01 T02970179  RH  049%=      5-min Rain = 0
KST3 140053Z 13006KT 30/18 A301 RMK A01 T02970179  RH  049%=      5-min Rain = 0
KST3 140054Z 13006KT 30/18 A301 RMK A01 T02960180  RH  049%=      5-min Rain = 0
KST3 140055Z 12008KT 30/18 A301 RMK A01 T02950179  RH  050%=      5-min Rain = 0
KST3 140056Z 13007KT 30/18 A301 RMK A01 T02950180  RH  050%=      5-min Rain = 0
KST3 140057Z 13007KT 30/18 A301 RMK A01 T02950180  RH  050%=      5-min Rain = 0
KST3 140058Z 13007KT 30/18 A301 RMK A01 T02950181  RH  050%=      5-min Rain = 0
KST3 140059Z 13006KT 29/18 A301 RMK A01 T02940181  RH  051%=      5-min Rain = 0
KST3 140100Z 13007KT 29/18 A301 RMK A01 T02930181  RH  051%=      5-min Rain = 0
KST3 140101Z 13007KT 29/18 A301 RMK A01 T02930181  RH  051%=      5-min Rain = 0
KST3 140102Z 13007KT 29/18 A301 RMK A01 T02920182  RH  051%=      5-min Rain = 0
KST3 140103Z 12008KT 29/18 A301 RMK A01 T02910181  RH  051%=      5-min Rain = 0
KST3 140104Z 12007KT 29/18 A301 RMK A01 T02910182  RH  052%=      5-min Rain = 0
KST3 140105Z 12007KT 29/18 A301 RMK A01 T02910182  RH  052%=      5-min Rain = 0
KST3 140106Z 12007KT 29/18 A301 RMK A01 T02900183  RH  052%=      5-min Rain = 0
KST3 140107Z 13007KT 29/18 A301 RMK A01 T02890183  RH  053%=      5-min Rain = 0
KST3 140108Z 13007KT 29/18 A301 RMK A01 T02890183  RH  053%=      5-min Rain = 0
KST3 140109Z 13006KT 29/18 A301 RMK A01 T02880184  RH  053%=      5-min Rain = 0
KST3 140110Z 13006KT 29/18 A301 RMK A01 T02880184  RH  054%=      5-min Rain = 0
KST3 140111Z 13007KT 29/18 A301 RMK A01 T02870184  RH  054%=      5-min Rain = 0
KST3 140112Z 13006KT 29/19 A301 RMK A01 T02870185  RH  054%=      5-min Rain = 0
KST3 140113Z 13006KT 29/19 A3011 RMK A01 T02860185  RH  054%=      5-min Rain = 0
KST3 140114Z 13006KT 29/19 A301 RMK A01 T02860185  RH  054%=      5-min Rain = 0
KST3 140115Z 13006KT 29/19 A301 RMK A01 T02860186  RH  055%=      5-min Rain = 0
KST3 140116Z 13006KT 29/19 A301 RMK A01 T02850185  RH  055%=      5-min Rain = 0
KST3 140117Z 13007KT 28/19 A301 RMK A01 T02840185  RH  055%=      5-min Rain = 0
KST3 140118Z 13007KT 28/19 A301 RMK A01 T02840186  RH  055%=      5-min Rain = 0
KST3 140119Z 12007KT 28/19 A301 RMK A01 T02830185  RH  055%=      5-min Rain = 0
KST3 140120Z 12007KT 28/19 A301 RMK A01 T02830186  RH  056%=      5-min Rain = 0
KST3 140121Z 12007KT 28/19 A301 RMK A01 T02830186  RH  056%=      5-min Rain = 0
KST3 140122Z 12007KT 28/19 A301 RMK A01 T02820186  RH  056%=      5-min Rain = 0
KST3 140123Z 12007KT 28/19 A301 RMK A01 T02810186  RH  056%=      5-min Rain = 0
KST3 140124Z 12007KT 28/19 A301 RMK A01 T02800186  RH  057%=      5-min Rain = 0
KST3 140125Z 11007KT 28/19 A301 RMK A01 T02790186  RH  057%=      5-min Rain = 0
KST3 140126Z 11007KT 28/19 A301 RMK A01 T02790187  RH  057%=      5-min Rain = 0
KST3 140127Z 11007KT 28/19 A3011 RMK A01 T02780187  RH  058%=      5-min Rain = 0
KST3 140128Z 11007KT 28/19 A3011 RMK A01 T02770187  RH  058%=      5-min Rain = 0
KST3 140129Z 11007KT 28/19 A3011 RMK A01 T02760186  RH  058%=      5-min Rain = 0
KST3 140130Z 11007KT 28/19 A3011 RMK A01 T02760187  RH  058%=      5-min Rain = 0
KST3 140131Z 11006KT 28/19 A3011 RMK A01 T02760187  RH  058%=      5-min Rain = 0
KST3 140132Z 11006KT 28/19 A3011 RMK A01 T02750187  RH  059%=      5-min Rain = 0
KST3 140133Z 11007KT 28/19 A3011 RMK A01 T02750187  RH  059%=      5-min Rain = 0
KST3 140134Z 11006KT 27/19 A3011 RMK A01 T02740187  RH  059%=      5-min Rain = 0
KST3 140135Z 11006KT 27/19 A3011 RMK A01 T02740187  RH  059%=      5-min Rain = 0
KST3 140136Z 11006KT 27/19 A3011 RMK A01 T02740187  RH  059%=      5-min Rain = 0
KST3 140137Z 11007KT 27/19 A3011 RMK A01 T02730187  RH  059%=      5-min Rain = 0
KST3 140138Z 11007KT 27/19 A3011 RMK A01 T02730187  RH  059%=      5-min Rain = 0
KST3 140139Z 11007KT 27/19 A3011 RMK A01 T02730188  RH  060%=      5-min Rain = 0
KST3 140140Z 11007KT 27/19 A3011 RMK A01 T02720188  RH  060%=      5-min Rain = 0
KST3 140141Z 11007KT 27/19 A3011 RMK A01 T02720188  RH  060%=      5-min Rain = 0
KST3 140142Z 11007KT 27/19 A3011 RMK A01 T02720188  RH  060%=      5-min Rain = 0
KST3 140143Z 11007KT 27/19 A3011 RMK A01 T02710188  RH  060%=      5-min Rain = 0
KST3 140144Z 11006KT 27/19 A3011 RMK A01 T02710188  RH  060%=      5-min Rain = 0
KST3 140145Z 12006KT 27/19 A3012 RMK A01 T02710188  RH  061%=      5-min Rain = 0
KST3 140146Z 11006KT 27/19 A3012 RMK A01 T02700188  RH  061%=      5-min Rain = 0
KST3 140147Z 11006KT 27/19 A3012 RMK A01 T02700188  RH  061%=      5-min Rain = 0
KST3 140148Z 11006KT 27/19 A3012 RMK A01 T02690188  RH  061%=      5-min Rain = 0
KST3 140149Z 11005KT 27/19 A3012 RMK A01 T02700189  RH  061%=      5-min Rain = 0
KST3 140150Z 11005KT 27/19 A3013 RMK A01 T02680189  RH  062%=      5-min Rain = 0
KST3 140151Z 11006KT 27/19 A3013 RMK A01 T02670190  RH  062%=      5-min Rain = 0
KST3 140152Z 11006KT 27/19 A3013 RMK A01 T02660189  RH  062%=      5-min Rain = 0
KST3 140153Z 11006KT 27/19 A3013 RMK A01 T02660189  RH  062%=      5-min Rain = 0
KST3 140154Z 11006KT 27/19 A3013 RMK A01 T02660188  RH  062%=      5-min Rain = 0
KST3 140155Z 11006KT 27/19 A3013 RMK A01 T02670188  RH  062%=      5-min Rain = 0
KST3 140156Z 11006KT 27/19 A3013 RMK A01 T02670188  RH  062%=      5-min Rain = 0
KST3 140157Z 12006KT 27/19 A3013 RMK A01 T02670189  RH  062%=      5-min Rain = 0
KST3 140158Z 12006KT 27/19 A3013 RMK A01 T02670189  RH  062%=      5-min Rain = 0
KST3 140159Z 12007KT 27/19 A3013 RMK A01 T02670189  RH  062%=      5-min Rain = 0
KST3 140200Z 12007KT 27/19 A3013 RMK A01 T02670188  RH  062%=      5-min Rain = 0
KST3 140201Z 13007KT 27/19 A3013 RMK A01 T02670188  RH  062%=      5-min Rain = 0
KST3 140202Z 13006KT 27/19 A3013 RMK A01 T02680188  RH  062%=      5-min Rain = 0
KST3 140203Z 13006KT 27/19 A3012 RMK A01 T02680188  RH  061%=      5-min Rain = 0
KST3 140204Z 13006KT 27/19 A3012 RMK A01 T02690188  RH  061%=      5-min Rain = 0
KST3 140205Z 13005KT 27/19 A3012 RMK A01 T02690188  RH  061%=      5-min Rain = 0
KST3 140206Z 13006KT 27/19 A3013 RMK A01 T02690189  RH  062%=      5-min Rain = 0
KST3 140207Z 13005KT 27/19 A3013 RMK A01 T02680189  RH  062%=      5-min Rain = 0
KST3 140208Z 13005KT 27/19 A3013 RMK A01 T02680189  RH  062%=      5-min Rain = 0
KST3 140209Z 13006KT 27/19 A3013 RMK A01 T02680189  RH  062%=      5-min Rain = 0
KST3 140210Z 13006KT 27/19 A3013 RMK A01 T02680189  RH  062%=      5-min Rain = 0
KST3 140211Z 13005KT 27/19 A3013 RMK A01 T02680189  RH  062%=      5-min Rain = 0
KST3 140212Z 14005KT 27/19 A3013 RMK A01 T02680189  RH  062%=      5-min Rain = 0
KST3 140213Z 13004KT 27/19 A3013 RMK A01 T02680189  RH  062%=      5-min Rain = 0
KST3 140214Z 13005KT 27/19 A3013 RMK A01 T02670189  RH  062%=      5-min Rain = 0
KST3 140215Z 13005KT 27/19 A3013 RMK A01 T02670189  RH  062%=      5-min Rain = 0
KST3 140216Z 12005KT 27/19 A3013 RMK A01 T02670189  RH  063%=      5-min Rain = 0
KST3 140217Z 12006KT 27/19 A3013 RMK A01 T02660189  RH  063%=      5-min Rain = 0
KST3 140218Z 12006KT 27/19 A3013 RMK A01 T02660190  RH  063%=      5-min Rain = 0
KST3 140219Z 12006KT 27/19 A3013 RMK A01 T02650191  RH  064%=      5-min Rain = 0
KST3 140220Z 12006KT 26/19 A3013 RMK A01 T02640190  RH  064%=      5-min Rain = 0
KST3 140221Z 12006KT 26/19 A3013 RMK A01 T02640190  RH  064%=      5-min Rain = 0
KST3 140222Z 12006KT 26/19 A3013 RMK A01 T02640190  RH  064%=      5-min Rain = 0
KST3 140223Z 13005KT 26/19 A3013 RMK A01 T02640190  RH  064%=      5-min Rain = 0
KST3 140224Z 13005KT 26/19 A3013 RMK A01 T02640190  RH  064%=      5-min Rain = 0
KST3 140225Z 13005KT 26/19 A3013 RMK A01 T02640190  RH  064%=      5-min Rain = 0
KST3 140226Z 13005KT 26/19 A3013 RMK A01 T02630190  RH  064%=      5-min Rain = 0
KST3 140227Z 13005KT 26/19 A3014 RMK A01 T02640190  RH  064%=      5-min Rain = 0
KST3 140228Z 13005KT 26/19 A3014 RMK A01 T02640189  RH  064%=      5-min Rain = 0
KST3 140229Z 13005KT 26/19 A3014 RMK A01 T02640190  RH  064%=      5-min Rain = 0
KST3 140230Z 13005KT 26/19 A3014 RMK A01 T02630190  RH  064%=      5-min Rain = 0
KST3 140231Z 13005KT 26/19 A3014 RMK A01 T02630190  RH  064%=      5-min Rain = 0
KST3 140232Z 13005KT 26/19 A3014 RMK A01 T02630190  RH  064%=      5-min Rain = 0
KST3 140233Z 13005KT 26/19 A3014 RMK A01 T02630190  RH  064%=      5-min Rain = 0
KST3 140234Z 13005KT 26/19 A3014 RMK A01 T02630190  RH  064%=      5-min Rain = 0
KST3 140235Z 14004KT 26/19 A3014 RMK A01 T02630190  RH  064%=      5-min Rain = 0
KST3 140236Z 14005KT 26/19 A3014 RMK A01 T02620190  RH  065%=      5-min Rain = 0
KST3 140237Z 14005KT 26/19 A3014 RMK A01 T02620191  RH  065%=      5-min Rain = 0
KST3 140238Z 14005KT 26/19 A3014 RMK A01 T02620191  RH  065%=      5-min Rain = 0
KST3 140239Z 14004KT 26/19 A3014 RMK A01 T02610191  RH  065%=      5-min Rain = 0
KST3 140240Z 14005KT 26/19 A3014 RMK A01 T02610190  RH  065%=      5-min Rain = 0
KST3 140241Z 14004KT 26/19 A3014 RMK A01 T02600190  RH  065%=      5-min Rain = 0
KST3 140242Z 14005KT 26/19 A3014 RMK A01 T02600191  RH  065%=      5-min Rain = 0
KST3 140243Z 14005KT 26/19 A3014 RMK A01 T02600191  RH  065%=      5-min Rain = 0
KST3 140244Z 14006KT 26/19 A3014 RMK A01 T02600190  RH  065%=      5-min Rain = 0
KST3 140245Z 14006KT 26/19 A3014 RMK A01 T02600190  RH  065%=      5-min Rain = 0
KST3 140246Z 14006KT 26/19 A3014 RMK A01 T02600190  RH  065%=      5-min Rain = 0
KST3 140247Z 14007KT 26/19 A3014 RMK A01 T02600190  RH  065%=      5-min Rain = 0
KST3 140248Z 15006KT 26/19 A3014 RMK A01 T02600190  RH  065%=      5-min Rain = 0
KST3 140249Z 15007KT 26/19 A3014 RMK A01 T02600190  RH  065%=      5-min Rain = 0
KST3 140250Z 14006KT 26/19 A3014 RMK A01 T02600189  RH  065%=      5-min Rain = 0
KST3 140251Z 14007KT 26/19 A3014 RMK A01 T02600190  RH  065%=      5-min Rain = 0
KST3 140252Z 13006KT 26/19 A3014 RMK A01 T02600189  RH  065%=      5-min Rain = 0
KST3 140253Z 13006KT 26/19 A3014 RMK A01 T02600189  RH  065%=      5-min Rain = 0
KST3 140254Z 13006KT 26/19 A3014 RMK A01 T02610189  RH  065%=      5-min Rain = 0
KST3 140255Z 13006KT 26/19 A3014 RMK A01 T02610189  RH  065%=      5-min Rain = 0
KST3 140256Z 13006KT 26/19 A3014 RMK A01 T02610189  RH  065%=      5-min Rain = 0
KST3 140257Z 13007KT 26/19 A3014 RMK A01 T02610190  RH  065%=      5-min Rain = 0
KST3 140258Z 13006KT 26/19 A3014 RMK A01 T02600190  RH  065%=      5-min Rain = 0
KST3 140259Z 13006KT 26/19 A3014 RMK A01 T02600190  RH  065%=      5-min Rain = 0
KST3 140300Z 12006KT 26/19 A3014 RMK A01 T02590190  RH  066%=      5-min Rain = 0
KST3 140301Z 13007KT 26/19 A3014 RMK A01 T02580189  RH  066%=      5-min Rain = 0
KST3 140302Z 13007KT 26/19 A3014 RMK A01 T02590190  RH  066%=      5-min Rain = 0
KST3 140303Z 13007KT 26/19 A3014 RMK A01 T02590190  RH  066%=      5-min Rain = 0
KST3 140304Z 13007KT 26/19 A3014 RMK A01 T02580190  RH  066%=      5-min Rain = 0
KST3 140305Z 13007KT 26/19 A3014 RMK A01 T02580189  RH  066%=      5-min Rain = 0
KST3 140306Z 13007KT 26/19 A3014 RMK A01 T02580189  RH  066%=      5-min Rain = 0
KST3 140307Z 13006KT 26/19 A3014 RMK A01 T02590190  RH  066%=      5-min Rain = 0
KST3 140308Z 13006KT 26/19 A3014 RMK A01 T02590190  RH  066%=      5-min Rain = 0
KST3 140309Z 13006KT 26/19 A3014 RMK A01 T02580190  RH  066%=      5-min Rain = 0
KST3 140310Z 14007KT 26/19 A3015 RMK A01 T02580190  RH  066%=      5-min Rain = 0
KST3 140311Z 14006KT 26/19 A3015 RMK A01 T02570190  RH  066%=      5-min Rain = 0
KST3 140312Z 14007KT 26/19 A3015 RMK A01 T02570190  RH  066%=      5-min Rain = 0
KST3 140313Z 13006KT 26/19 A3015 RMK A01 T02570189  RH  066%=      5-min Rain = 0
KST3 140314Z 13007KT 26/19 A3015 RMK A01 T02570189  RH  066%=      5-min Rain = 0
KST3 140315Z 14007KT 26/19 A3015 RMK A01 T02570189  RH  066%=      5-min Rain = 0
KST3 140316Z 13007KT 26/19 A3015 RMK A01 T02570189  RH  066%=      5-min Rain = 0
KST3 140317Z 14007KT 26/19 A3015 RMK A01 T02570189  RH  066%=      5-min Rain = 0
KST3 140318Z 13008KT 26/19 A3015 RMK A01 T02570189  RH  066%=      5-min Rain = 0
KST3 140319Z 13007KT 26/19 A3015 RMK A01 T02570189  RH  066%=      5-min Rain = 0
KST3 140320Z 14006KT 26/19 A3015 RMK A01 T02570189  RH  066%=      5-min Rain = 0
KST3 140321Z 14007KT 26/19 A3015 RMK A01 T02570189  RH  066%=      5-min Rain = 0
KST3 140322Z 14006KT 26/19 A3015 RMK A01 T02570189  RH  066%=      5-min Rain = 0
KST3 140323Z 13006KT 26/19 A3015 RMK A01 T02570189  RH  066%=      5-min Rain = 0
KST3 140324Z 14006KT 26/19 A3015 RMK A01 T02570189  RH  066%=      5-min Rain = 0
KST3 140325Z 14007KT 26/19 A3016 RMK A01 T02570189  RH  066%=      5-min Rain = 0
KST3 140326Z 14006KT 26/19 A3016 RMK A01 T02560189  RH  066%=      5-min Rain = 0
KST3 140327Z 14006KT 26/19 A3016 RMK A01 T02570190  RH  067%=      5-min Rain = 0
KST3 140328Z 14007KT 26/19 A3016 RMK A01 T02560189  RH  066%=      5-min Rain = 0
KST3 140329Z 14007KT 26/19 A3016 RMK A01 T02560189  RH  067%=      5-min Rain = 0
KST3 140330Z 14006KT 26/19 A3016 RMK A01 T02560189  RH  067%=      5-min Rain = 0
KST3 140331Z 13006KT 26/19 A3016 RMK A01 T02550190  RH  067%=      5-min Rain = 0
KST3 140332Z 14006KT 26/19 A3016 RMK A01 T02550190  RH  067%=      5-min Rain = 0
KST3 140333Z 13006KT 26/19 A3016 RMK A01 T02550190  RH  067%=      5-min Rain = 0
KST3 140334Z 13006KT 25/19 A3016 RMK A01 T02540190  RH  067%=      5-min Rain = 0
KST3 140335Z 13007KT 25/19 A3016 RMK A01 T02540190  RH  067%=      5-min Rain = 0
KST3 140336Z 13006KT 25/19 A3016 RMK A01 T02540189  RH  067%=      5-min Rain = 0
KST3 140337Z 13006KT 25/19 A3016 RMK A01 T02540189  RH  067%=      5-min Rain = 0
KST3 140338Z 12006KT 25/19 A3016 RMK A01 T02530189  RH  068%=      5-min Rain = 0
KST3 140339Z 12006KT 25/19 A3016 RMK A01 T02530189  RH  068%=      5-min Rain = 0
KST3 140340Z 12006KT 25/19 A3016 RMK A01 T02520190  RH  068%=      5-min Rain = 0
KST3 140341Z 12006KT 25/19 A3016 RMK A01 T02510190  RH  069%=      5-min Rain = 0
KST3 140342Z 12007KT 25/19 A3016 RMK A01 T02500190  RH  069%=      5-min Rain = 0
KST3 140343Z 12006KT 25/19 A3016 RMK A01 T02500190  RH  070%=      5-min Rain = 0
KST3 140344Z 12006KT 25/19 A3016 RMK A01 T02490190  RH  070%=      5-min Rain = 0
KST3 140345Z 13007KT 25/19 A3016 RMK A01 T02480190  RH  070%=      5-min Rain = 0
KST3 140346Z 13006KT 25/19 A3016 RMK A01 T02490190  RH  070%=      5-min Rain = 0
KST3 140347Z 13007KT 25/19 A3016 RMK A01 T02490191  RH  070%=      5-min Rain = 0
KST3 140348Z 13006KT 25/19 A3016 RMK A01 T02480190  RH  070%=      5-min Rain = 0
KST3 140349Z 13007KT 25/19 A3016 RMK A01 T02480190  RH  070%=      5-min Rain = 0
KST3 140350Z 13007KT 25/19 A3016 RMK A01 T02480189  RH  070%=      5-min Rain = 0
KST3 140351Z 14007KT 25/19 A3016 RMK A01 T02480190  RH  070%=      5-min Rain = 0
KST3 140352Z 13006KT 25/19 A3016 RMK A01 T02480190  RH  070%=      5-min Rain = 0
KST3 140353Z 13006KT 25/19 A3016 RMK A01 T02480190  RH  070%=      5-min Rain = 0
KST3 140354Z 14006KT 25/19 A3016 RMK A01 T02480190  RH  070%=      5-min Rain = 0
KST3 140355Z 13007KT 25/19 A3016 RMK A01 T02480190  RH  070%=      5-min Rain = 0
KST3 140356Z 14006KT 25/19 A3016 RMK A01 T02480190  RH  070%=      5-min Rain = 0
KST3 140357Z 13007KT 25/19 A3016 RMK A01 T02470190  RH  070%=      5-min Rain = 0
KST3 140358Z 13007KT 25/19 A3016 RMK A01 T02480190  RH  070%=      5-min Rain = 0
KST3 140359Z 14007KT 25/19 A3016 RMK A01 T02470189  RH  070%=      5-min Rain = 0
KST3 140400Z 13008KT 25/19 A3016 RMK A01 T02480190  RH  070%=      5-min Rain = 0
KST3 140401Z 12009KT 25/19 A3016 RMK A01 T02470190  RH  070%=      5-min Rain = 0
KST3 140402Z 12008KT 25/19 A3016 RMK A01 T02480190  RH  070%=      5-min Rain = 0
KST3 140403Z 11009KT 25/19 A3017 RMK A01 T02470190  RH  071%=      5-min Rain = 0
KST3 140404Z 11009KT 25/19 A3017 RMK A01 T02460191  RH  071%=      5-min Rain = 0
KST3 140405Z 12009KT 25/19 A3017 RMK A01 T02460190  RH  071%=      5-min Rain = 0
KST3 140406Z 12009KT 25/19 A3017 RMK A01 T02460190  RH  071%=      5-min Rain = 0
KST3 140407Z 12008KT 25/19 A3017 RMK A01 T02460191  RH  071%=      5-min Rain = 0
KST3 140408Z 12008KT 25/19 A3017 RMK A01 T02450190  RH  071%=      5-min Rain = 0
KST3 140409Z 12008KT 25/19 A3017 RMK A01 T02450191  RH  071%=      5-min Rain = 0
KST3 140410Z 12007KT 25/19 A3017 RMK A01 T02450191  RH  072%=      5-min Rain = 0
KST3 140411Z 11008KT 25/19 A3018 RMK A01 T02450191  RH  072%=      5-min Rain = 0
KST3 140412Z 11008KT 25/19 A3018 RMK A01 T02450191  RH  072%=      5-min Rain = 0
KST3 140413Z 11008KT 24/19 A3018 RMK A01 T02440191  RH  072%=      5-min Rain = 0
KST3 140414Z 10008KT 24/19 A3018 RMK A01 T02440191  RH  072%=      5-min Rain = 0
KST3 140415Z 10008KT 24/19 A3019 RMK A01 T02440192  RH  073%=      5-min Rain = 0
KST3 140416Z 09007KT 24/19 A3019 RMK A01 T02420191  RH  073%=      5-min Rain = 0
KST3 140417Z 08006KT 24/19 A3019 RMK A01 T02420191  RH  073%=      5-min Rain = 0
KST3 140418Z 08008KT 24/19 A3019 RMK A01 T02420192  RH  073%=      5-min Rain = 0
KST3 140419Z 07008KT 24/19 A302 RMK A01 T02420192  RH  074%=      5-min Rain = 0
KST3 140420Z 06008KT 24/19 A302 RMK A01 T02410192  RH  074%=      5-min Rain = 0
KST3 140421Z 06008KT 24/19 A302 RMK A01 T02410192  RH  074%=      5-min Rain = 0
KST3 140422Z 06009KT 24/19 A3021 RMK A01 T02410192  RH  074%=      5-min Rain = 0
KST3 140423Z 06008KT 24/19 A3021 RMK A01 T02400193  RH  075%=      5-min Rain = 0
KST3 140424Z 07008KT 24/19 A3021 RMK A01 T02400193  RH  075%=      5-min Rain = 0
KST3 140425Z 07008KT 24/19 A3021 RMK A01 T02390193  RH  075%=      5-min Rain = 0
KST3 140426Z 07007KT 24/19 A3021 RMK A01 T02390193  RH  075%=      5-min Rain = 0
KST3 140427Z 07007KT 24/19 A3021 RMK A01 T02390193  RH  075%=      5-min Rain = 0
KST3 140428Z 07008KT 24/19 A3021 RMK A01 T02390194  RH  076%=      5-min Rain = 0
KST3 140429Z 07007KT 24/19 A3021 RMK A01 T02390194  RH  076%=      5-min Rain = 0
KST3 140430Z 06007KT 24/19 A3021 RMK A01 T02390194  RH  076%=      5-min Rain = 0
KST3 140431Z 06006KT 24/19 A3021 RMK A01 T02390194  RH  076%=      5-min Rain = 0
KST3 140432Z 06006KT 24/19 A3021 RMK A01 T02390194  RH  076%=      5-min Rain = 0
KST3 140433Z 06006KT 24/19 A3021 RMK A01 T02380194  RH  076%=      5-min Rain = 0
KST3 140434Z 05008KT 24/19 A3022 RMK A01 T02390194  RH  076%=      5-min Rain = 0
KST3 140435Z 04013KT 24/19 A3023 RMK A01 T02390194  RH  076%=      5-min Rain = 0
KST3 140436Z 04016KT 24/19 A3024 RMK A01 T02390194  RH  076%=      5-min Rain = 0
KST3 140437Z 06021G29KT 24/18 A3024 RMK A01 T02390183  RH  071%=      5-min Rain = 0
KST3 140438Z 06020G25KT 23/16 A3024 RMK A01 T02330164  RH  065%=      5-min Rain = 0
KST3 140439Z 05018G24KT 23/16 A3024 RMK A01 T02260156  RH  065%=      5-min Rain = 0
KST3 140440Z 06017G22KT 22/15 A3024 RMK A01 T02220154  RH  065%=      5-min Rain = 0
KST3 140441Z 05015G21KT 22/15 A3024 RMK A01 T02200153  RH  066%=      5-min Rain = 0
KST3 140442Z 05020G25KT 22/15 A3024 RMK A01 T02180151  RH  066%=      5-min Rain = 0
KST3 140443Z 05016KT 22/15 A3024 RMK A01 T02160148  RH  065%=      5-min Rain = 0
KST3 140444Z 05017KT 21/15 A3025 RMK A01 T02140146  RH  065%=      5-min Rain = 0
KST3 140445Z 05016KT 21/14 A3025 RMK A01 T02120144  RH  065%=      5-min Rain = 0
KST3 140446Z 05017KT 21/14 A3025 RMK A01 T02110143  RH  065%=      5-min Rain = 0
KST3 140447Z 05014KT 21/14 A3025 RMK A01 T02100143  RH  066%=      5-min Rain = 0
KST3 140448Z 05015KT 21/14 A3025 RMK A01 T02090143  RH  066%=      5-min Rain = 0
KST3 140449Z 05015KT 21/14 A3025 RMK A01 T02080143  RH  066%=      5-min Rain = 0
KST3 140450Z 05015KT 21/14 A3025 RMK A01 T02080143  RH  066%=      5-min Rain = 0
KST3 140451Z 05015KT 21/14 A3025 RMK A01 T02080143  RH  066%=      5-min Rain = 0
KST3 140452Z 05016KT 21/14 A3025 RMK A01 T02070142  RH  066%=      5-min Rain = 0
KST3 140453Z 05014KT 21/14 A3025 RMK A01 T02070143  RH  067%=      5-min Rain = 0
KST3 140454Z 05021KT 21/14 A3025 RMK A01 T02070143  RH  067%=      5-min Rain = 0
KST3 140455Z 06022KT 21/14 A3025 RMK A01 T02060141  RH  066%=      5-min Rain = 0
KST3 140456Z 05021G26KT 21/14 A3025 RMK A01 T02060141  RH  067%=      5-min Rain = 0
KST3 140457Z 06016G22KT 21/14 A3025 RMK A01 T02050142  RH  067%=      5-min Rain = 0
KST3 140458Z 06019G25KT 20/14 A3025 RMK A01 T02040142  RH  067%=      5-min Rain = 0
KST3 140459Z 06021G28KT 20/14 A3025 RMK A01 T02040142  RH  068%=      5-min Rain = 0

Page generated in 0.0721 seconds.